Wetterdaten: Dienstag, 17.03.2020
Datum Zeit Temp. Aussen Temp. o. S. Temp +5cm Feuchte Auss Luftdruck Regen Sonnenschein Regendauer Solar Windben Empfang
17.03.2020 00:00 9,8 C 8,9 C 8,3 C 87 % 1025,9 hPa 0,0 l/m 0 min 0 min 0 W/m 0,0 km/h (0 Bft) 100,00 %
17.03.2020 00:02 9,8 C 8,9 C 8,3 C 87 % 1026,0 hPa 0,0 l/m 0 min 0 min 0 W/m 0,0 km/h (0 Bft) 97,37 %
17.03.2020 00:04 9,8 C 8,9 C 8,3 C 87 % 1026,0 hPa 0,0 l/m 0 min 0 min 0 W/m 0,0 km/h (0 Bft) 100,00 %
17.03.2020 00:08 9,8 C 8,9 C 8,3 C 87 % 1026,0 hPa 0,0 l/m 0 min 0 min 0 W/m 0,0 km/h (0 Bft) 100,00 %
17.03.2020 00:10 9,8 C 8,9 C 8,3 C 87 % 1026,1 hPa 0,0 l/m 0 min 0 min 0 W/m 0,0 km/h (0 Bft) 100,00 %
17.03.2020 00:12 9,7 C 8,9 C 8,3 C 87 % 1026,0 hPa 0,0 l/m 0 min 0 min 0 W/m 0,0 km/h (0 Bft) 100,00 %
17.03.2020 00:14 9,7 C 8,9 C 8,3 C 87 % 1026,1 hPa 0,0 l/m 0 min 0 min 0 W/m 0,0 km/h (0 Bft) 100,00 %
17.03.2020 00:16 9,7 C 8,9 C 8,3 C 87 % 1026,1 hPa 0,0 l/m 0 min 0 min 0 W/m 0,0 km/h (0 Bft) 100,00 %
17.03.2020 00:18 9,7 C 8,9 C 8,3 C 87 % 1026,1 hPa 0,0 l/m 0 min 0 min 0 W/m 0,0 km/h (0 Bft) 100,00 %
17.03.2020 00:20 9,7 C 8,9 C 8,3 C 87 % 1026,2 hPa 0,0 l/m 0 min 0 min 0 W/m 0,0 km/h (0 Bft) 100,00 %
17.03.2020 00:22 9,7 C 8,9 C 8,3 C 87 % 1026,2 hPa 0,0 l/m 0 min 0 min 0 W/m 0,0 km/h (0 Bft) 100,00 %
17.03.2020 00:24 9,7 C 8,9 C 8,3 C 87 % 1026,2 hPa 0,0 l/m 0 min 0 min 0 W/m 0,0 km/h (0 Bft) 100,00 %
17.03.2020 00:26 9,7 C 8,9 C 8,3 C 87 % 1026,3 hPa 0,0 l/m 0 min 0 min 0 W/m 0,0 km/h (0 Bft) 100,00 %
17.03.2020 00:28 9,7 C 8,9 C 8,3 C 88 % 1026,3 hPa 0,0 l/m 0 min 0 min 0 W/m 0,0 km/h (0 Bft) 97,83 %
17.03.2020 00:30 9,7 C 8,9 C 8,3 C 88 % 1026,4 hPa 0,0 l/m 0 min 0 min 0 W/m 0,0 km/h (0 Bft) 100,00 %
17.03.2020 00:32 9,7 C 8,9 C 8,3 C 88 % 1026,4 hPa 0,0 l/m 0 min 0 min 0 W/m 0,0 km/h (0 Bft) 100,00 %
17.03.2020 00:34 9,7 C 8,9 C 8,3 C 88 % 1026,5 hPa 0,0 l/m 0 min 0 min 0 W/m 0,0 km/h (0 Bft) 100,00 %
17.03.2020 00:36 9,6 C 8,9 C 8,3 C 88 % 1026,4 hPa 0,0 l/m 0 min 0 min 0 W/m 0,0 km/h (0 Bft) 97,87 %
17.03.2020 00:38 9,6 C 8,9 C 8,3 C 88 % 1026,5 hPa 0,0 l/m 0 min 0 min 0 W/m 0,0 km/h (0 Bft) 95,74 %
17.03.2020 00:40 9,6 C 8,9 C 8,3 C 88 % 1026,5 hPa 0,0 l/m 0 min 0 min 0 W/m 0,0 km/h (0 Bft) 100,00 %
17.03.2020 00:42 9,6 C 8,9 C 8,3 C 88 % 1026,5 hPa 0,0 l/m 0 min 0 min 0 W/m 3,2 km/h (1 Bft) 97,87 %
17.03.2020 00:44 9,6 C 8,9 C 8,3 C 88 % 1026,5 hPa 0,0 l/m 0 min 0 min 0 W/m 0,0 km/h (0 Bft) 97,87 %
17.03.2020 00:46 9,6 C 8,9 C 8,3 C 88 % 1026,5 hPa 0,0 l/m 0 min 0 min 0 W/m 0,0 km/h (0 Bft) 97,87 %
17.03.2020 00:48 9,6 C 8,9 C 8,3 C 88 % 1026,6 hPa 0,0 l/m 0 min 0 min 0 W/m 0,0 km/h (0 Bft) 95,74 %
17.03.2020 00:50 9,6 C 8,9 C 8,3 C 88 % 1026,6 hPa 0,0 l/m 0 min 0 min 0 W/m 0,0 km/h (0 Bft) 97,87 %
17.03.2020 00:52 9,6 C 8,9 C 8,3 C 88 % 1026,7 hPa 0,0 l/m 0 min 0 min 0 W/m 9,7 km/h (2 Bft) 97,83 %
17.03.2020 00:54 9,6 C 8,9 C 8,3 C 88 % 1026,7 hPa 0,0 l/m 0 min 0 min 0 W/m 0,0 km/h (0 Bft) 97,87 %
17.03.2020 00:56 9,6 C 8,9 C 8,3 C 88 % 1026,7 hPa 0,0 l/m 0 min 0 min 0 W/m 0,0 km/h (0 Bft) 97,87 %
17.03.2020 00:58 9,5 C 8,3 C 8,3 C 88 % 1026,7 hPa 0,0 l/m 0 min 0 min 0 W/m 3,2 km/h (1 Bft) 97,87 %
17.03.2020 01:00 9,5 C 8,3 C 8,3 C 88 % 1026,7 hPa 0,0 l/m 0 min 0 min 0 W/m 9,7 km/h (2 Bft) 97,87 %
17.03.2020 01:02 9,5 C 8,3 C 8,3 C 88 % 1026,8 hPa 0,0 l/m 0 min 0 min 0 W/m 3,2 km/h (1 Bft) 95,65 %
17.03.2020 01:04 9,5 C 8,3 C 8,3 C 88 % 1026,8 hPa 0,0 l/m 0 min 0 min 0 W/m 6,4 km/h (2 Bft) 97,87 %
17.03.2020 01:06 9,4 C 8,3 C 8,3 C 88 % 1026,8 hPa 0,0 l/m 0 min 0 min 0 W/m 0,0 km/h (0 Bft) 97,87 %
17.03.2020 01:08 9,4 C 8,3 C 8,3 C 88 % 1026,8 hPa 0,0 l/m 0 min 0 min 0 W/m 0,0 km/h (0 Bft) 97,87 %
17.03.2020 01:10 9,4 C 8,3 C 8,3 C 88 % 1026,7 hPa 0,0 l/m 0 min 0 min 0 W/m 3,2 km/h (1 Bft) 97,87 %
17.03.2020 01:12 9,4 C 8,3 C 8,3 C 88 % 1026,8 hPa 0,0 l/m 0 min 0 min 0 W/m 0,0 km/h (0 Bft) 95,74 %
17.03.2020 01:14 9,4 C 8,3 C 8,3 C 88 % 1026,8 hPa 0,0 l/m 0 min 0 min 0 W/m 0,0 km/h (0 Bft) 95,65 %
17.03.2020 01:16 9,4 C 8,3 C 8,3 C 88 % 1026,8 hPa 0,0 l/m 0 min 0 min 0 W/m 0,0 km/h (0 Bft) 93,62 %
17.03.2020 01:18 9,4 C 8,3 C 8,3 C 88 % 1026,9 hPa 0,0 l/m 0 min 0 min 0 W/m 0,0 km/h (0 Bft) 93,62 %
17.03.2020 01:20 9,4 C 8,3 C 8,3 C 88 % 1026,9 hPa 0,0 l/m 0 min 0 min 0 W/m 0,0 km/h (0 Bft) 97,87 %
17.03.2020 01:22 9,3 C 8,3 C 8,3 C 88 % 1026,9 hPa 0,0 l/m 0 min 0 min 0 W/m 0,0 km/h (0 Bft) 95,65 %
17.03.2020 01:24 9,3 C 8,3 C 8,3 C 88 % 1026,9 hPa 0,0 l/m 0 min 0 min 0 W/m 0,0 km/h (0 Bft) 93,62 %
17.03.2020 01:26 9,3 C 8,3 C 8,3 C 88 % 1026,9 hPa 0,0 l/m 0 min 0 min 0 W/m 0,0 km/h (0 Bft) 98,00 %
17.03.2020 01:28 9,3 C 8,3 C 8,3 C 88 % 1026,9 hPa 0,0 l/m 0 min 0 min 0 W/m 0,0 km/h (0 Bft) 97,73 %
17.03.2020 01:30 9,3 C 8,3 C 7,8 C 88 % 1027,0 hPa 0,0 l/m 0 min 0 min 0 W/m 0,0 km/h (0 Bft) 97,96 %
17.03.2020 01:32 9,3 C 8,3 C 7,8 C 88 % 1027,0 hPa 0,0 l/m 0 min 0 min 0 W/m 0,0 km/h (0 Bft) 58,33 %
17.03.2020 01:34 9,3 C 8,3 C 7,8 C 88 % 1027,0 hPa 0,0 l/m 0 min 0 min 0 W/m 0,0 km/h (0 Bft) 93,62 %
17.03.2020 01:36 9,3 C 8,3 C 7,8 C 88 % 1027,0 hPa 0,0 l/m 0 min 0 min 0 W/m 0,0 km/h (0 Bft) 97,83 %
17.03.2020 01:38 9,3 C 8,3 C 7,8 C 88 % 1027,0 hPa 0,0 l/m 0 min 0 min 0 W/m 0,0 km/h (0 Bft) 95,74 %
17.03.2020 01:40 9,3 C 8,3 C 7,8 C 88 % 1027,0 hPa 0,0 l/m 0 min 0 min 0 W/m 0,0 km/h (0 Bft) 95,74 %
17.03.2020 01:42 9,3 C 8,3 C 7,8 C 88 % 1027,0 hPa 0,0 l/m 0 min 0 min 0 W/m 0,0 km/h (0 Bft) 95,74 %
17.03.2020 01:44 9,3 C 8,3 C 7,8 C 88 % 1027,0 hPa 0,0 l/m 0 min 0 min 0 W/m 0,0 km/h (0 Bft) 93,62 %
17.03.2020 01:46 9,2 C 8,3 C 7,8 C 88 % 1027,0 hPa 0,0 l/m 0 min 0 min 0 W/m 0,0 km/h (0 Bft) 95,74 %
17.03.2020 01:48 9,2 C 8,3 C 7,8 C 88 % 1027,1 hPa 0,0 l/m 0 min 0 min 0 W/m 0,0 km/h (0 Bft) 93,48 %
17.03.2020 01:50 9,2 C 8,3 C 7,8 C 88 % 1027,0 hPa 0,0 l/m 0 min 0 min 0 W/m 0,0 km/h (0 Bft) 93,62 %
17.03.2020 01:52 9,2 C 8,3 C 7,8 C 88 % 1027,1 hPa 0,0 l/m 0 min 0 min 0 W/m 0,0 km/h (0 Bft) 93,62 %
17.03.2020 01:54 9,2 C 8,3 C 7,8 C 88 % 1027,1 hPa 0,0 l/m 0 min 0 min 0 W/m 0,0 km/h (0 Bft) 95,74 %
17.03.2020 01:56 9,2 C 8,3 C 7,8 C 88 % 1027,1 hPa 0,0 l/m 0 min 0 min 0 W/m 3,2 km/h (1 Bft) 95,74 %
17.03.2020 01:58 9,2 C 8,3 C 7,8 C 88 % 1027,1 hPa 0,0 l/m 0 min 0 min 0 W/m 0,0 km/h (0 Bft) 97,87 %
17.03.2020 02:00 9,2 C 8,3 C 7,8 C 88 % 1027,1 hPa 0,0 l/m 0 min 0 min 0 W/m 0,0 km/h (0 Bft) 97,83 %
17.03.2020 02:02 9,2 C 8,3 C 7,8 C 88 % 1027,1 hPa 0,0 l/m 0 min 0 min 0 W/m 0,0 km/h (0 Bft) 95,74 %
17.03.2020 02:04 9,2 C 8,3 C 7,8 C 88 % 1027,1 hPa 0,0 l/m 0 min 0 min 0 W/m 0,0 km/h (0 Bft) 97,87 %
17.03.2020 02:06 9,1 C 7,8 C 7,8 C 88 % 1027,0 hPa 0,0 l/m 0 min 0 min 0 W/m 0,0 km/h (0 Bft) 97,87 %
17.03.2020 02:08 9,1 C 7,8 C 7,8 C 88 % 1027,0 hPa 0,0 l/m 0 min 0 min 0 W/m 0,0 km/h (0 Bft) 97,87 %
17.03.2020 02:10 9,1 C 7,8 C 7,8 C 88 % 1027,0 hPa 0,0 l/m 0 min 0 min 0 W/m 0,0 km/h (0 Bft) 95,74 %
17.03.2020 02:12 9,1 C 7,8 C 7,8 C 88 % 1027,0 hPa 0,0 l/m 0 min 0 min 0 W/m 0,0 km/h (0 Bft) 97,83 %
17.03.2020 02:14 9,1 C 7,8 C 7,8 C 88 % 1027,0 hPa 0,0 l/m 0 min 0 min 0 W/m 0,0 km/h (0 Bft) 95,74 %
17.03.2020 02:16 9,1 C 7,8 C 7,2 C 88 % 1027,1 hPa 0,0 l/m 0 min 0 min 0 W/m 0,0 km/h (0 Bft) 97,87 %
17.03.2020 02:18 9,1 C 7,8 C 7,2 C 88 % 1027,1 hPa 0,0 l/m 0 min 0 min 0 W/m 0,0 km/h (0 Bft) 97,87 %
17.03.2020 02:20 9,1 C 7,8 C 7,2 C 88 % 1027,1 hPa 0,0 l/m 0 min 0 min 0 W/m 0,0 km/h (0 Bft) 97,87 %
17.03.2020 02:22 9,0 C 7,8 C 7,2 C 88 % 1027,2 hPa 0,0 l/m 0 min 0 min 0 W/m 0,0 km/h (0 Bft) 97,83 %
17.03.2020 02:24 9,0 C 7,8 C 7,2 C 88 % 1027,1 hPa 0,0 l/m 0 min 0 min 0 W/m 0,0 km/h (0 Bft) 97,87 %
17.03.2020 02:26 9,0 C 7,8 C 7,2 C 88 % 1027,2 hPa 0,0 l/m 0 min 0 min 0 W/m 0,0 km/h (0 Bft) 97,87 %
17.03.2020 02:28 9,0 C 7,8 C 7,2 C 88 % 1027,2 hPa 0,0 l/m 0 min 0 min 0 W/m 0,0 km/h (0 Bft) 97,87 %
17.03.2020 02:30 8,9 C 7,8 C 7,2 C 88 % 1027,3 hPa 0,0 l/m 0 min 0 min 0 W/m 0,0 km/h (0 Bft) 97,87 %
17.03.2020 02:32 8,9 C 7,8 C 7,2 C 88 % 1027,2 hPa 0,0 l/m 0 min 0 min 0 W/m 0,0 km/h (0 Bft) 93,62 %
17.03.2020 02:34 8,9 C 7,8 C 7,2 C 88 % 1027,2 hPa 0,0 l/m 0 min 0 min 0 W/m 0,0 km/h (0 Bft) 97,87 %
17.03.2020 02:36 8,9 C 7,8 C 7,2 C 88 % 1027,2 hPa 0,0 l/m 0 min 0 min 0 W/m 0,0 km/h (0 Bft) 95,74 %
17.03.2020 02:38 8,9 C 7,8 C 7,2 C 88 % 1027,1 hPa 0,0 l/m 0 min 0 min 0 W/m 0,0 km/h (0 Bft) 97,87 %
17.03.2020 02:40 8,9 C 7,8 C 7,2 C 88 % 1027,1 hPa 0,0 l/m 0 min 0 min 0 W/m 0,0 km/h (0 Bft) 100,00 %
17.03.2020 02:42 8,8 C 7,8 C 7,2 C 88 % 1027,0 hPa 0,0 l/m 0 min 0 min 0 W/m 0,0 km/h (0 Bft) 97,83 %
17.03.2020 02:44 8,8 C 7,8 C 7,8 C 88 % 1026,9 hPa 0,0 l/m 0 min 0 min 0 W/m 0,0 km/h (0 Bft) 100,00 %
17.03.2020 02:46 8,8 C 7,8 C 7,8 C 88 % 1026,9 hPa 0,0 l/m 0 min 0 min 0 W/m 0,0 km/h (0 Bft) 100,00 %
17.03.2020 02:48 8,8 C 7,8 C 7,2 C 88 % 1026,9 hPa 0,0 l/m 0 min 0 min 0 W/m 0,0 km/h (0 Bft) 100,00 %
17.03.2020 02:50 8,8 C 7,8 C 7,2 C 88 % 1027,0 hPa 0,0 l/m 0 min 0 min 0 W/m 0,0 km/h (0 Bft) 100,00 %
17.03.2020 02:52 8,8 C 7,8 C 7,2 C 87 % 1027,0 hPa 0,0 l/m 0 min 0 min 0 W/m 0,0 km/h (0 Bft) 100,00 %
17.03.2020 02:54 8,7 C 7,8 C 7,2 C 87 % 1027,1 hPa 0,0 l/m 0 min 0 min 0 W/m 0,0 km/h (0 Bft) 97,83 %
17.03.2020 02:56 8,7 C 7,8 C 7,2 C 87 % 1027,1 hPa 0,0 l/m 0 min 0 min 0 W/m 0,0 km/h (0 Bft) 100,00 %
17.03.2020 02:58 8,7 C 7,8 C 7,2 C 87 % 1027,1 hPa 0,0 l/m 0 min 0 min 0 W/m 0,0 km/h (0 Bft) 100,00 %
17.03.2020 03:00 8,7 C 7,8 C 7,2 C 87 % 1027,1 hPa 0,0 l/m 0 min 0 min 0 W/m 0,0 km/h (0 Bft) 100,00 %
17.03.2020 03:02 8,7 C 7,8 C 7,2 C 87 % 1027,2 hPa 0,0 l/m 0 min 0 min 0 W/m 3,2 km/h (1 Bft) 97,87 %
17.03.2020 03:04 8,7 C 7,8 C 7,2 C 87 % 1027,2 hPa 0,0 l/m 0 min 0 min 0 W/m 0,0 km/h (0 Bft) 97,87 %
17.03.2020 03:06 8,6 C 7,8 C 7,2 C 87 % 1027,3 hPa 0,0 l/m 0 min 0 min 0 W/m 0,0 km/h (0 Bft) 100,00 %
17.03.2020 03:08 8,6 C 7,8 C 7,2 C 87 % 1027,2 hPa 0,0 l/m 0 min 0 min 0 W/m 0,0 km/h (0 Bft) 100,00 %
17.03.2020 03:10 8,6 C 7,8 C 7,2 C 86 % 1027,1 hPa 0,0 l/m 0 min 0 min 0 W/m 0,0 km/h (0 Bft) 100,00 %
17.03.2020 03:12 8,6 C 7,8 C 7,2 C 86 % 1027,1 hPa 0,0 l/m 0 min 0 min 0 W/m 0,0 km/h (0 Bft) 97,87 %
17.03.2020 03:14 8,6 C 7,8 C 7,2 C 86 % 1027,2 hPa 0,0 l/m 0 min 0 min 0 W/m 0,0 km/h (0 Bft) 97,87 %
17.03.2020 03:16 8,6 C 7,8 C 7,2 C 86 % 1027,2 hPa 0,0 l/m 0 min 0 min 0 W/m 0,0 km/h (0 Bft) 97,83 %
17.03.2020 03:18 8,6 C 7,8 C 7,2 C 86 % 1027,1 hPa 0,0 l/m 0 min 0 min 0 W/m 0,0 km/h (0 Bft) 95,74 %
17.03.2020 03:20 8,6 C 7,8 C 7,2 C 86 % 1027,0 hPa 0,0 l/m 0 min 0 min 0 W/m 0,0 km/h (0 Bft) 97,87 %
17.03.2020 03:22 8,6 C 7,8 C 7,2 C 86 % 1027,0 hPa 0,0 l/m 0 min 0 min 0 W/m 0,0 km/h (0 Bft) 97,87 %
17.03.2020 03:24 8,6 C 7,8 C 7,2 C 86 % 1027,1 hPa 0,0 l/m 0 min 0 min 0 W/m 0,0 km/h (0 Bft) 97,87 %
17.03.2020 03:26 8,6 C 7,8 C 7,2 C 86 % 1027,1 hPa 0,0 l/m 0 min 0 min 0 W/m 0,0 km/h (0 Bft) 93,62 %
17.03.2020 03:28 8,6 C 7,8 C 7,2 C 86 % 1027,2 hPa 0,0 l/m 0 min 0 min 0 W/m 0,0 km/h (0 Bft) 97,83 %
17.03.2020 03:30 8,6 C 7,8 C 7,2 C 86 % 1027,2 hPa 0,0 l/m 0 min 0 min 0 W/m 0,0 km/h (0 Bft) 97,87 %
17.03.2020 03:32 8,6 C 7,8 C 7,2 C 86 % 1027,2 hPa 0,0 l/m 0 min 0 min 0 W/m 0,0 km/h (0 Bft) 97,87 %
17.03.2020 03:34 8,6 C 7,8 C 7,2 C 86 % 1027,2 hPa 0,0 l/m 0 min 0 min 0 W/m 0,0 km/h (0 Bft) 95,74 %
17.03.2020 03:36 8,6 C 7,8 C 7,2 C 86 % 1027,2 hPa 0,0 l/m 0 min 0 min 0 W/m 0,0 km/h (0 Bft) 97,87 %
17.03.2020 03:38 8,5 C 7,8 C 7,2 C 86 % 1027,1 hPa 0,0 l/m 0 min 0 min 0 W/m 0,0 km/h (0 Bft) 97,87 %
17.03.2020 03:40 8,5 C 7,8 C 7,2 C 86 % 1027,1 hPa 0,0 l/m 0 min 0 min 0 W/m 0,0 km/h (0 Bft) 97,83 %
17.03.2020 03:42 8,5 C 7,8 C 7,2 C 86 % 1027,2 hPa 0,0 l/m 0 min 0 min 0 W/m 0,0 km/h (0 Bft) 97,87 %
17.03.2020 03:44 8,5 C 7,8 C 7,2 C 86 % 1027,2 hPa 0,0 l/m 0 min 0 min 0 W/m 0,0 km/h (0 Bft) 100,00 %
17.03.2020 03:46 8,5 C 7,8 C 7,2 C 86 % 1027,2 hPa 0,0 l/m 0 min 0 min 0 W/m 0,0 km/h (0 Bft) 97,87 %
17.03.2020 03:48 8,5 C 7,8 C 6,7 C 86 % 1027,2 hPa 0,0 l/m 0 min 0 min 0 W/m 0,0 km/h (0 Bft) 100,00 %
17.03.2020 03:50 8,5 C 7,8 C 6,7 C 86 % 1027,2 hPa 0,0 l/m 0 min 0 min 0 W/m 0,0 km/h (0 Bft) 97,87 %
17.03.2020 03:52 8,5 C 7,2 C 6,7 C 86 % 1027,2 hPa 0,0 l/m 0 min 0 min 0 W/m 0,0 km/h (0 Bft) 97,83 %
17.03.2020 03:54 8,5 C 7,2 C 6,7 C 86 % 1027,3 hPa 0,0 l/m 0 min 0 min 0 W/m 0,0 km/h (0 Bft) 97,87 %
17.03.2020 03:56 8,5 C 7,2 C 6,7 C 86 % 1027,3 hPa 0,0 l/m 0 min 0 min 0 W/m 0,0 km/h (0 Bft) 95,74 %
17.03.2020 03:58 8,5 C 7,2 C 6,7 C 86 % 1027,3 hPa 0,0 l/m 0 min 0 min 0 W/m 0,0 km/h (0 Bft) 100,00 %
17.03.2020 04:00 8,4 C 7,2 C 6,7 C 86 % 1027,3 hPa 0,0 l/m 0 min 0 min 0 W/m 0,0 km/h (0 Bft) 100,00 %
17.03.2020 04:02 8,4 C 7,2 C 6,7 C 86 % 1027,4 hPa 0,0 l/m 0 min 0 min 0 W/m 0,0 km/h (0 Bft) 94,74 %
17.03.2020 04:04 8,4 C 7,2 C 6,7 C 86 % 1027,4 hPa 0,0 l/m 0 min 0 min 0 W/m 0,0 km/h (0 Bft) 100,00 %
17.03.2020 04:06 8,4 C 6,7 C 6,7 C 86 % 1027,4 hPa 0,0 l/m 0 min 0 min 0 W/m 0,0 km/h (0 Bft) 100,00 %
17.03.2020 04:08 8,3 C 6,7 C 6,7 C 86 % 1027,5 hPa 0,0 l/m 0 min 0 min 0 W/m 0,0 km/h (0 Bft) 95,74 %
17.03.2020 04:10 8,3 C 6,7 C 6,7 C 86 % 1027,5 hPa 0,0 l/m 0 min 0 min 0 W/m 0,0 km/h (0 Bft) 93,62 %
17.03.2020 04:12 8,3 C 6,7 C 6,7 C 86 % 1027,5 hPa 0,0 l/m 0 min 0 min 0 W/m 0,0 km/h (0 Bft) 100,00 %
17.03.2020 04:14 8,3 C 6,7 C 6,7 C 86 % 1027,5 hPa 0,0 l/m 0 min 0 min 0 W/m 0,0 km/h (0 Bft) 95,65 %
17.03.2020 04:16 8,2 C 6,7 C 6,1 C 86 % 1027,7 hPa 0,0 l/m 0 min 0 min 0 W/m 0,0 km/h (0 Bft) 97,87 %
17.03.2020 04:18 8,2 C 6,7 C 6,1 C 86 % 1027,7 hPa 0,0 l/m 0 min 0 min 0 W/m 0,0 km/h (0 Bft) 97,87 %
17.03.2020 04:20 8,2 C 6,1 C 5,6 C 86 % 1027,7 hPa 0,0 l/m 0 min 0 min 0 W/m 0,0 km/h (0 Bft) 97,87 %
17.03.2020 04:22 8,1 C 6,1 C 5,6 C 86 % 1027,8 hPa 0,0 l/m 0 min 0 min 0 W/m 0,0 km/h (0 Bft) 97,87 %
17.03.2020 04:24 8,1 C 6,1 C 5,6 C 86 % 1027,8 hPa 0,0 l/m 0 min 0 min 0 W/m 0,0 km/h (0 Bft) 97,87 %
17.03.2020 04:26 8,1 C 6,1 C 5,6 C 86 % 1027,9 hPa 0,0 l/m 0 min 0 min 0 W/m 0,0 km/h (0 Bft) 95,65 %
17.03.2020 04:28 8,0 C 6,1 C 5,6 C 86 % 1027,8 hPa 0,0 l/m 0 min 0 min 0 W/m 0,0 km/h (0 Bft) 97,87 %
17.03.2020 04:30 7,9 C 6,1 C 5,6 C 86 % 1027,9 hPa 0,0 l/m 0 min 0 min 0 W/m 0,0 km/h (0 Bft) 97,87 %
17.03.2020 04:32 7,9 C 6,1 C 5,6 C 86 % 1027,9 hPa 0,0 l/m 0 min 0 min 0 W/m 0,0 km/h (0 Bft) 97,87 %
17.03.2020 04:34 7,8 C 6,1 C 5,6 C 86 % 1027,8 hPa 0,0 l/m 0 min 0 min 0 W/m 0,0 km/h (0 Bft) 97,87 %
17.03.2020 04:36 7,8 C 6,1 C 5,6 C 86 % 1027,9 hPa 0,0 l/m 0 min 0 min 0 W/m 0,0 km/h (0 Bft) 97,87 %
17.03.2020 04:38 7,8 C 6,1 C 5,6 C 86 % 1027,9 hPa 0,0 l/m 0 min 0 min 0 W/m 0,0 km/h (0 Bft) 97,83 %
17.03.2020 04:40 7,7 C 5,6 C 5,6 C 86 % 1027,9 hPa 0,0 l/m 0 min 0 min 0 W/m 0,0 km/h (0 Bft) 97,87 %
17.03.2020 04:42 7,7 C 5,6 C 5,0 C 86 % 1028,0 hPa 0,0 l/m 0 min 0 min 0 W/m 0,0 km/h (0 Bft) 97,87 %
17.03.2020 04:44 7,7 C 5,6 C 5,0 C 86 % 1028,0 hPa 0,0 l/m 0 min 0 min 0 W/m 0,0 km/h (0 Bft) 95,74 %
17.03.2020 04:46 7,6 C 5,6 C 5,0 C 86 % 1028,0 hPa 0,0 l/m 0 min 0 min 0 W/m 0,0 km/h (0 Bft) 97,87 %
17.03.2020 04:48 7,6 C 5,6 C 5,0 C 86 % 1028,0 hPa 0,0 l/m 0 min 0 min 0 W/m 0,0 km/h (0 Bft) 97,14 %
17.03.2020 04:50 7,5 C 5,6 C 5,0 C 86 % 1028,0 hPa 0,0 l/m 0 min 0 min 0 W/m 0,0 km/h (0 Bft) 98,18 %
17.03.2020 04:52 7,5 C 5,6 C 5,0 C 86 % 1028,0 hPa 0,0 l/m 0 min 0 min 0 W/m 0,0 km/h (0 Bft) 97,87 %
17.03.2020 04:54 7,4 C 5,6 C 4,4 C 86 % 1028,1 hPa 0,0 l/m 0 min 0 min 0 W/m 0,0 km/h (0 Bft) 97,87 %
17.03.2020 04:56 7,4 C 5,6 C 4,4 C 86 % 1028,1 hPa 0,0 l/m 0 min 0 min 0 W/m 0,0 km/h (0 Bft) 97,83 %
17.03.2020 04:58 7,3 C 5,6 C 4,4 C 86 % 1028,1 hPa 0,0 l/m 0 min 0 min 0 W/m 0,0 km/h (0 Bft) 95,74 %
17.03.2020 05:00 7,3 C 5,6 C 4,4 C 86 % 1028,2 hPa 0,0 l/m 0 min 0 min 0 W/m 0,0 km/h (0 Bft) 98,00 %
17.03.2020 05:02 7,3 C 5,6 C 4,4 C 86 % 1028,2 hPa 0,0 l/m 0 min 0 min 0 W/m 0,0 km/h (0 Bft) 97,87 %
17.03.2020 05:04 7,2 C 5,6 C 4,4 C 86 % 1028,2 hPa 0,0 l/m 0 min 0 min 0 W/m 0,0 km/h (0 Bft) 100,00 %
17.03.2020 05:06 7,2 C 5,6 C 4,4 C 86 % 1028,3 hPa 0,0 l/m 0 min 0 min 0 W/m 0,0 km/h (0 Bft) 100,00 %
17.03.2020 05:08 7,2 C 5,6 C 4,4 C 87 % 1028,3 hPa 0,0 l/m 0 min 0 min 0 W/m 0,0 km/h (0 Bft) 100,00 %
17.03.2020 05:10 7,1 C 5,0 C 4,4 C 87 % 1028,3 hPa 0,0 l/m 0 min 0 min 0 W/m 0,0 km/h (0 Bft) 95,74 %
17.03.2020 05:12 7,1 C 5,0 C 4,4 C 87 % 1028,3 hPa 0,0 l/m 0 min 0 min 0 W/m 0,0 km/h (0 Bft) 97,87 %
17.03.2020 05:14 7,1 C 5,6 C 4,4 C 87 % 1028,2 hPa 0,0 l/m 0 min 0 min 0 W/m 0,0 km/h (0 Bft) 96,00 %
17.03.2020 05:16 7,0 C 5,6 C 4,4 C 87 % 1028,3 hPa 0,0 l/m 0 min 0 min 0 W/m 0,0 km/h (0 Bft) 100,00 %
17.03.2020 05:18 7,0 C 5,0 C 4,4 C 87 % 1028,3 hPa 0,0 l/m 0 min 0 min 0 W/m 0,0 km/h (0 Bft) 97,87 %
17.03.2020 05:20 6,9 C 5,0 C 3,9 C 87 % 1028,4 hPa 0,0 l/m 0 min 0 min 0 W/m 0,0 km/h (0 Bft) 100,00 %
17.03.2020 05:22 6,9 C 5,0 C 3,9 C 87 % 1028,3 hPa 0,0 l/m 0 min 0 min 0 W/m 0,0 km/h (0 Bft) 97,87 %
17.03.2020 05:24 6,8 C 5,0 C 3,9 C 87 % 1028,4 hPa 0,0 l/m 0 min 0 min 0 W/m 0,0 km/h (0 Bft) 97,87 %
17.03.2020 05:26 6,8 C 5,0 C 3,9 C 87 % 1028,4 hPa 0,0 l/m 0 min 0 min 0 W/m 0,0 km/h (0 Bft) 97,87 %
17.03.2020 05:28 6,8 C 5,6 C 3,9 C 87 % 1028,3 hPa 0,0 l/m 0 min 0 min 0 W/m 0,0 km/h (0 Bft) 97,83 %
17.03.2020 05:30 6,8 C 5,6 C 3,9 C 87 % 1028,4 hPa 0,0 l/m 0 min 0 min 0 W/m 0,0 km/h (0 Bft) 97,87 %
17.03.2020 05:32 6,7 C 5,0 C 3,9 C 87 % 1028,4 hPa 0,0 l/m 0 min 0 min 0 W/m 0,0 km/h (0 Bft) 96,36 %
17.03.2020 05:34 6,7 C 5,0 C 3,9 C 87 % 1028,4 hPa 0,0 l/m 0 min 0 min 0 W/m 0,0 km/h (0 Bft) 97,87 %
17.03.2020 05:36 6,7 C 5,0 C 3,9 C 87 % 1028,4 hPa 0,0 l/m 0 min 0 min 0 W/m 0,0 km/h (0 Bft) 95,74 %
17.03.2020 05:38 6,6 C 5,0 C 3,9 C 87 % 1028,4 hPa 0,0 l/m 0 min 0 min 0 W/m 0,0 km/h (0 Bft) 98,00 %
17.03.2020 05:40 6,6 C 5,0 C 3,9 C 87 % 1028,4 hPa 0,0 l/m 0 min 0 min 0 W/m 0,0 km/h (0 Bft) 97,83 %
17.03.2020 05:42 6,6 C 4,4 C 3,9 C 87 % 1028,4 hPa 0,0 l/m 0 min 0 min 0 W/m 0,0 km/h (0 Bft) 95,74 %
17.03.2020 05:44 6,5 C 4,4 C 3,9 C 87 % 1028,5 hPa 0,0 l/m 0 min 0 min 0 W/m 0,0 km/h (0 Bft) 97,92 %
17.03.2020 05:46 6,5 C 4,4 C 3,3 C 87 % 1028,5 hPa 0,0 l/m 0 min 0 min 0 W/m 0,0 km/h (0 Bft) 100,00 %
17.03.2020 05:48 6,5 C 4,4 C 3,3 C 87 % 1028,6 hPa 0,0 l/m 0 min 0 min 0 W/m 0,0 km/h (0 Bft) 97,87 %
17.03.2020 05:50 6,4 C 4,4 C 3,3 C 88 % 1028,6 hPa 0,0 l/m 0 min 0 min 0 W/m 0,0 km/h (0 Bft) 93,48 %
17.03.2020 05:52 6,4 C 4,4 C 3,3 C 87 % 1028,6 hPa 0,0 l/m 0 min 0 min 0 W/m 0,0 km/h (0 Bft) 95,74 %
17.03.2020 05:54 6,3 C 4,4 C 3,3 C 87 % 1028,5 hPa 0,0 l/m 0 min 0 min 0 W/m 0,0 km/h (0 Bft) 97,87 %
17.03.2020 05:56 6,3 C 4,4 C 3,3 C 87 % 1028,6 hPa 0,0 l/m 0 min 0 min 0 W/m 0,0 km/h (0 Bft) 95,74 %
17.03.2020 05:58 6,3 C 3,9 C 3,3 C 87 % 1028,7 hPa 0,0 l/m 0 min 0 min 0 W/m 0,0 km/h (0 Bft) 97,87 %
17.03.2020 06:00 6,2 C 3,9 C 3,3 C 88 % 1028,8 hPa 0,0 l/m 0 min 0 min 0 W/m 0,0 km/h (0 Bft) 97,87 %
17.03.2020 06:02 6,2 C 4,4 C 3,3 C 88 % 1028,8 hPa 0,0 l/m 0 min 0 min 0 W/m 0,0 km/h (0 Bft) 93,48 %
17.03.2020 06:04 6,1 C 4,4 C 3,3 C 88 % 1028,7 hPa 0,0 l/m 0 min 0 min 0 W/m 0,0 km/h (0 Bft) 97,87 %
17.03.2020 06:08 6,1 C 4,4 C 3,3 C 88 % 1028,8 hPa 0,0 l/m 0 min 0 min 0 W/m 0,0 km/h (0 Bft) 97,87 %
17.03.2020 06:10 6,0 C 4,4 C 3,3 C 88 % 1028,8 hPa 0,0 l/m 0 min 0 min 0 W/m 0,0 km/h (0 Bft) 97,87 %
17.03.2020 06:12 6,0 C 4,4 C 3,3 C 88 % 1028,7 hPa 0,0 l/m 0 min 0 min 0 W/m 0,0 km/h (0 Bft) 97,87 %
17.03.2020 06:14 5,9 C 4,4 C 3,3 C 88 % 1028,8 hPa 0,0 l/m 0 min 0 min 0 W/m 0,0 km/h (0 Bft) 97,83 %
17.03.2020 06:16 5,9 C 4,4 C 3,3 C 89 % 1028,8 hPa 0,0 l/m 0 min 0 min 0 W/m 0,0 km/h (0 Bft) 97,87 %
17.03.2020 06:18 5,9 C 5,0 C 3,3 C 89 % 1028,8 hPa 0,0 l/m 0 min 0 min 0 W/m 0,0 km/h (0 Bft) 95,74 %
17.03.2020 06:20 5,8 C 4,4 C 3,3 C 89 % 1028,8 hPa 0,0 l/m 0 min 0 min 0 W/m 0,0 km/h (0 Bft) 97,87 %
17.03.2020 06:22 5,8 C 4,4 C 2,8 C 89 % 1028,8 hPa 0,0 l/m 0 min 0 min 0 W/m 0,0 km/h (0 Bft) 97,87 %
17.03.2020 06:24 5,8 C 4,4 C 2,8 C 89 % 1028,9 hPa 0,0 l/m 0 min 0 min 0 W/m 0,0 km/h (0 Bft) 97,87 %
17.03.2020 06:26 5,8 C 4,4 C 2,8 C 89 % 1028,9 hPa 0,0 l/m 0 min 0 min 0 W/m 0,0 km/h (0 Bft) 97,83 %
17.03.2020 06:28 5,7 C 4,4 C 2,8 C 89 % 1028,9 hPa 0,0 l/m 0 min 0 min 0 W/m 0,0 km/h (0 Bft) 93,62 %
17.03.2020 06:30 5,7 C 4,4 C 2,8 C 89 % 1028,9 hPa 0,0 l/m 0 min 0 min 0 W/m 0,0 km/h (0 Bft) 97,87 %
17.03.2020 06:32 5,7 C 4,4 C 2,8 C 89 % 1029,0 hPa 0,0 l/m 0 min 0 min 0 W/m 0,0 km/h (0 Bft) 93,62 %
17.03.2020 06:34 5,7 C 4,4 C 2,8 C 89 % 1029,1 hPa 0,0 l/m 0 min 0 min 0 W/m 0,0 km/h (0 Bft) 97,87 %
17.03.2020 06:36 5,6 C 3,9 C 2,8 C 89 % 1029,1 hPa 0,0 l/m 0 min 0 min 0 W/m 0,0 km/h (0 Bft) 97,87 %
17.03.2020 06:38 5,6 C 3,9 C 2,8 C 89 % 1029,1 hPa 0,0 l/m 0 min 0 min 0 W/m 0,0 km/h (0 Bft) 97,83 %
17.03.2020 06:40 5,6 C 3,9 C 2,8 C 89 % 1029,1 hPa 0,0 l/m 0 min 0 min 0 W/m 0,0 km/h (0 Bft) 97,87 %
17.03.2020 06:42 5,6 C 3,9 C 2,8 C 89 % 1029,1 hPa 0,0 l/m 0 min 0 min 0 W/m 0,0 km/h (0 Bft) 95,74 %
17.03.2020 06:44 5,5 C 3,9 C 2,8 C 89 % 1029,1 hPa 0,0 l/m 0 min 0 min 0 W/m 0,0 km/h (0 Bft) 97,87 %
17.03.2020 06:46 5,5 C 3,9 C 2,8 C 89 % 1029,1 hPa 0,0 l/m 0 min 0 min 3 W/m 0,0 km/h (0 Bft) 97,87 %
17.03.2020 06:48 5,4 C 3,9 C 2,8 C 89 % 1029,1 hPa 0,0 l/m 0 min 0 min 5 W/m 0,0 km/h (0 Bft) 74,47 %
17.03.2020 06:50 5,4 C 3,9 C 2,8 C 89 % 1029,2 hPa 0,0 l/m 0 min 0 min 7 W/m 0,0 km/h (0 Bft) 77,78 %
17.03.2020 06:52 5,4 C 3,9 C 2,2 C 89 % 1029,2 hPa 0,0 l/m 0 min 0 min 7 W/m 0,0 km/h (0 Bft) 97,87 %
17.03.2020 06:54 5,3 C 3,9 C 2,2 C 89 % 1029,2 hPa 0,0 l/m 0 min 0 min 9 W/m 0,0 km/h (0 Bft) 97,87 %
17.03.2020 06:56 5,3 C 3,3 C 2,2 C 89 % 1029,2 hPa 0,0 l/m 0 min 0 min 11 W/m 0,0 km/h (0 Bft) 97,87 %
17.03.2020 06:58 5,3 C 3,3 C 2,2 C 89 % 1029,3 hPa 0,0 l/m 0 min 0 min 12 W/m 0,0 km/h (0 Bft) 97,87 %
17.03.2020 07:00 5,2 C 3,3 C 2,2 C 89 % 1029,3 hPa 0,0 l/m 0 min 0 min 13 W/m 0,0 km/h (0 Bft) 95,74 %
17.03.2020 07:02 5,2 C 3,3 C 2,2 C 89 % 1029,3 hPa 0,0 l/m 0 min 0 min 14 W/m 0,0 km/h (0 Bft) 97,83 %
17.03.2020 07:04 5,2 C 3,3 C 2,2 C 89 % 1029,3 hPa 0,0 l/m 0 min 0 min 15 W/m 0,0 km/h (0 Bft) 93,62 %
17.03.2020 07:06 5,1 C 3,3 C 2,2 C 89 % 1029,3 hPa 0,0 l/m 0 min 0 min 17 W/m 0,0 km/h (0 Bft) 97,87 %
17.03.2020 07:08 5,1 C 3,9 C 2,2 C 89 % 1029,3 hPa 0,0 l/m 0 min 0 min 18 W/m 0,0 km/h (0 Bft) 95,74 %
17.03.2020 07:10 5,1 C 3,9 C 2,2 C 89 % 1029,4 hPa 0,0 l/m 0 min 0 min 18 W/m 0,0 km/h (0 Bft) 97,87 %
17.03.2020 07:12 5,1 C 4,4 C 2,8 C 90 % 1029,4 hPa 0,0 l/m 0 min 0 min 18 W/m 0,0 km/h (0 Bft) 95,74 %
17.03.2020 07:14 5,0 C 4,4 C 2,8 C 90 % 1029,4 hPa 0,0 l/m 0 min 0 min 18 W/m 0,0 km/h (0 Bft) 97,83 %
17.03.2020 07:16 5,0 C 4,4 C 2,8 C 90 % 1029,5 hPa 0,0 l/m 0 min 0 min 19 W/m 0,0 km/h (0 Bft) 97,87 %
17.03.2020 07:18 5,0 C 4,4 C 2,8 C 90 % 1029,5 hPa 0,0 l/m 0 min 0 min 19 W/m 0,0 km/h (0 Bft) 95,74 %
17.03.2020 07:20 5,0 C 4,4 C 2,8 C 90 % 1029,5 hPa 0,0 l/m 0 min 0 min 19 W/m 0,0 km/h (0 Bft) 97,87 %
17.03.2020 07:22 4,9 C 5,0 C 2,8 C 90 % 1029,4 hPa 0,0 l/m 0 min 0 min 19 W/m 0,0 km/h (0 Bft) 97,87 %
17.03.2020 07:24 4,9 C 5,0 C 2,8 C 90 % 1029,4 hPa 0,0 l/m 0 min 0 min 20 W/m 0,0 km/h (0 Bft) 97,83 %
17.03.2020 07:26 4,9 C 5,0 C 2,8 C 91 % 1029,5 hPa 0,0 l/m 0 min 0 min 21 W/m 0,0 km/h (0 Bft) 93,62 %
17.03.2020 07:28 5,0 C 5,0 C 2,8 C 91 % 1029,5 hPa 0,0 l/m 0 min 0 min 21 W/m 0,0 km/h (0 Bft) 95,74 %
17.03.2020 07:30 5,0 C 5,0 C 2,8 C 91 % 1029,5 hPa 0,0 l/m 0 min 0 min 23 W/m 0,0 km/h (0 Bft) 95,74 %
17.03.2020 07:32 5,0 C 5,0 C 2,8 C 91 % 1029,5 hPa 0,0 l/m 0 min 0 min 25 W/m 0,0 km/h (0 Bft) 95,74 %
17.03.2020 07:34 5,0 C 5,0 C 2,8 C 91 % 1029,6 hPa 0,0 l/m 0 min 0 min 25 W/m 0,0 km/h (0 Bft) 93,62 %
17.03.2020 07:36 5,1 C 5,0 C 3,3 C 91 % 1029,6 hPa 0,0 l/m 0 min 0 min 27 W/m 0,0 km/h (0 Bft) 95,65 %
17.03.2020 07:38 5,1 C 5,0 C 3,3 C 91 % 1029,7 hPa 0,0 l/m 0 min 0 min 29 W/m 0,0 km/h (0 Bft) 95,74 %
17.03.2020 07:40 5,1 C 5,0 C 3,3 C 92 % 1029,7 hPa 0,0 l/m 0 min 0 min 31 W/m 0,0 km/h (0 Bft) 97,87 %
17.03.2020 07:42 5,1 C 5,0 C 3,3 C 92 % 1029,7 hPa 0,0 l/m 0 min 0 min 34 W/m 0,0 km/h (0 Bft) 93,62 %
17.03.2020 07:44 5,1 C 5,0 C 3,3 C 92 % 1029,7 hPa 0,0 l/m 0 min 0 min 37 W/m 0,0 km/h (0 Bft) 93,62 %
17.03.2020 07:46 5,1 C 5,0 C 3,3 C 92 % 1029,7 hPa 0,0 l/m 0 min 0 min 39 W/m 0,0 km/h (0 Bft) 95,65 %
17.03.2020 07:48 5,1 C 5,0 C 3,3 C 92 % 1029,8 hPa 0,0 l/m 0 min 0 min 41 W/m 0,0 km/h (0 Bft) 97,87 %
17.03.2020 07:50 5,1 C 5,6 C 3,9 C 92 % 1029,8 hPa 0,0 l/m 0 min 0 min 45 W/m 0,0 km/h (0 Bft) 97,87 %
17.03.2020 07:52 5,1 C 5,6 C 3,9 C 92 % 1029,9 hPa 0,0 l/m 0 min 0 min 47 W/m 0,0 km/h (0 Bft) 98,18 %
17.03.2020 07:54 5,2 C 5,6 C 3,9 C 93 % 1029,9 hPa 0,0 l/m 0 min 0 min 49 W/m 0,0 km/h (0 Bft) 97,87 %
17.03.2020 07:56 5,2 C 5,6 C 3,9 C 93 % 1030,0 hPa 0,0 l/m 0 min 0 min 52 W/m 0,0 km/h (0 Bft) 95,74 %
17.03.2020 07:58 5,2 C 5,6 C 3,9 C 93 % 1030,0 hPa 0,0 l/m 0 min 0 min 54 W/m 0,0 km/h (0 Bft) 97,87 %
17.03.2020 08:00 5,2 C 5,6 C 3,9 C 93 % 1030,1 hPa 0,0 l/m 0 min 0 min 57 W/m 0,0 km/h (0 Bft) 97,83 %
17.03.2020 08:02 5,2 C 5,6 C 4,4 C 93 % 1030,0 hPa 0,0 l/m 0 min 0 min 60 W/m 0,0 km/h (0 Bft) 95,74 %
17.03.2020 08:04 5,2 C 6,1 C 5,0 C 93 % 1030,0 hPa 0,0 l/m 0 min 0 min 63 W/m 0,0 km/h (0 Bft) 97,87 %
17.03.2020 08:06 5,3 C 6,1 C 5,0 C 93 % 1030,1 hPa 0,0 l/m 0 min 0 min 65 W/m 3,2 km/h (1 Bft) 97,87 %
17.03.2020 08:08 5,4 C 6,1 C 5,0 C 93 % 1030,0 hPa 0,0 l/m 0 min 0 min 67 W/m 0,0 km/h (0 Bft) 97,87 %
17.03.2020 08:10 5,4 C 6,7 C 5,6 C 93 % 1030,1 hPa 0,0 l/m 0 min 0 min 67 W/m 0,0 km/h (0 Bft) 95,74 %
17.03.2020 08:12 5,5 C 6,7 C 5,6 C 94 % 1030,1 hPa 0,0 l/m 0 min 0 min 67 W/m 3,2 km/h (1 Bft) 97,87 %
17.03.2020 08:14 5,6 C 6,7 C 5,6 C 94 % 1030,1 hPa 0,0 l/m 0 min 0 min 67 W/m 0,0 km/h (0 Bft) 100,00 %
17.03.2020 08:16 5,7 C 6,7 C 6,1 C 94 % 1030,1 hPa 0,0 l/m 0 min 0 min 67 W/m 0,0 km/h (0 Bft) 100,00 %
17.03.2020 08:18 5,8 C 7,2 C 6,1 C 94 % 1030,1 hPa 0,0 l/m 0 min 0 min 67 W/m 0,0 km/h (0 Bft) 97,87 %
17.03.2020 08:20 5,8 C 7,2 C 6,1 C 94 % 1030,1 hPa 0,0 l/m 0 min 0 min 66 W/m 0,0 km/h (0 Bft) 100,00 %
17.03.2020 08:22 5,9 C 7,2 C 6,1 C 94 % 1030,1 hPa 0,0 l/m 0 min 0 min 62 W/m 0,0 km/h (0 Bft) 100,00 %
17.03.2020 08:24 5,9 C 7,2 C 6,1 C 94 % 1030,2 hPa 0,0 l/m 0 min 0 min 58 W/m 0,0 km/h (0 Bft) 100,00 %
17.03.2020 08:26 6,0 C 7,2 C 6,1 C 94 % 1030,2 hPa 0,0 l/m 0 min 0 min 54 W/m 0,0 km/h (0 Bft) 97,87 %
17.03.2020 08:28 6,1 C 7,2 C 6,1 C 94 % 1030,3 hPa 0,0 l/m 0 min 0 min 55 W/m 0,0 km/h (0 Bft) 97,87 %
17.03.2020 08:30 6,1 C 7,2 C 6,1 C 94 % 1030,3 hPa 0,0 l/m 0 min 0 min 56 W/m 0,0 km/h (0 Bft) 100,00 %
17.03.2020 08:32 6,2 C 7,2 C 6,1 C 94 % 1030,3 hPa 0,0 l/m 0 min 0 min 58 W/m 0,0 km/h (0 Bft) 100,00 %
17.03.2020 08:34 6,2 C 7,2 C 6,1 C 94 % 1030,4 hPa 0,0 l/m 0 min 0 min 58 W/m 0,0 km/h (0 Bft) 100,00 %
17.03.2020 08:36 6,3 C 7,2 C 6,1 C 94 % 1030,4 hPa 0,0 l/m 0 min 0 min 58 W/m 0,0 km/h (0 Bft) 97,83 %
17.03.2020 08:38 6,3 C 7,2 C 6,7 C 94 % 1030,4 hPa 0,0 l/m 0 min 0 min 58 W/m 0,0 km/h (0 Bft) 100,00 %
17.03.2020 08:40 6,3 C 7,2 C 6,7 C 94 % 1030,5 hPa 0,0 l/m 0 min 0 min 58 W/m 0,0 km/h (0 Bft) 100,00 %
17.03.2020 08:42 6,4 C 7,8 C 6,7 C 94 % 1030,5 hPa 0,0 l/m 0 min 0 min 57 W/m 0,0 km/h (0 Bft) 100,00 %
17.03.2020 08:44 6,5 C 7,8 C 6,7 C 94 % 1030,6 hPa 0,0 l/m 0 min 0 min 56 W/m 0,0 km/h (0 Bft) 100,00 %
17.03.2020 08:46 6,5 C 7,8 C 6,7 C 94 % 1030,6 hPa 0,0 l/m 0 min 0 min 57 W/m 0,0 km/h (0 Bft) 100,00 %
17.03.2020 08:48 6,6 C 7,8 C 6,7 C 94 % 1030,6 hPa 0,0 l/m 0 min 0 min 64 W/m 0,0 km/h (0 Bft) 100,00 %
17.03.2020 08:50 6,6 C 7,8 C 6,7 C 94 % 1030,6 hPa 0,0 l/m 0 min 0 min 97 W/m 0,0 km/h (0 Bft) 97,87 %
17.03.2020 08:52 6,7 C 7,8 C 6,7 C 94 % 1030,6 hPa 0,0 l/m 2 min 0 min 236 W/m 0,0 km/h (0 Bft) 100,00 %
17.03.2020 08:54 6,7 C 8,9 C 6,7 C 94 % 1030,7 hPa 0,0 l/m 2 min 0 min 287 W/m 0,0 km/h (0 Bft) 100,00 %
17.03.2020 08:56 6,8 C 11,1 C 6,7 C 94 % 1030,7 hPa 0,0 l/m 2 min 0 min 296 W/m 0,0 km/h (0 Bft) 100,00 %
17.03.2020 08:58 6,8 C 12,8 C 6,7 C 94 % 1030,7 hPa 0,0 l/m 2 min 0 min 309 W/m 0,0 km/h (0 Bft) 100,00 %
17.03.2020 09:00 6,9 C 12,8 C 7,2 C 94 % 1030,7 hPa 0,0 l/m 2 min 0 min 294 W/m 0,0 km/h (0 Bft) 100,00 %
17.03.2020 09:02 7,0 C 12,2 C 7,2 C 93 % 1030,8 hPa 0,0 l/m 2 min 0 min 203 W/m 0,0 km/h (0 Bft) 97,87 %
17.03.2020 09:04 7,1 C 11,7 C 7,2 C 93 % 1030,8 hPa 0,0 l/m 2 min 0 min 246 W/m 0,0 km/h (0 Bft) 97,87 %
17.03.2020 09:06 7,2 C 11,7 C 7,2 C 93 % 1030,8 hPa 0,0 l/m 2 min 0 min 235 W/m 0,0 km/h (0 Bft) 100,00 %
17.03.2020 09:08 7,3 C 11,7 C 7,2 C 93 % 1030,8 hPa 0,0 l/m 2 min 0 min 269 W/m 0,0 km/h (0 Bft) 100,00 %
17.03.2020 09:10 7,4 C 12,8 C 7,2 C 92 % 1030,8 hPa 0,0 l/m 2 min 0 min 323 W/m 3,2 km/h (1 Bft) 100,00 %
17.03.2020 09:12 7,6 C 14,4 C 7,8 C 92 % 1030,8 hPa 0,0 l/m 2 min 0 min 343 W/m 0,0 km/h (0 Bft) 95,74 %
17.03.2020 09:14 7,7 C 14,4 C 7,8 C 92 % 1030,9 hPa 0,0 l/m 2 min 0 min 356 W/m 0,0 km/h (0 Bft) 97,87 %
17.03.2020 09:16 7,8 C 13,3 C 10,0 C 91 % 1030,8 hPa 0,0 l/m 2 min 0 min 356 W/m 0,0 km/h (0 Bft) 100,00 %
17.03.2020 09:18 8,0 C 13,9 C 11,7 C 91 % 1030,8 hPa 0,0 l/m 2 min 0 min 362 W/m 0,0 km/h (0 Bft) 100,00 %
17.03.2020 09:20 8,2 C 14,4 C 12,8 C 90 % 1030,9 hPa 0,0 l/m 2 min 0 min 371 W/m 0,0 km/h (0 Bft) 97,87 %
17.03.2020 09:22 8,3 C 14,4 C 13,3 C 89 % 1030,8 hPa 0,0 l/m 2 min 0 min 378 W/m 0,0 km/h (0 Bft) 97,83 %
17.03.2020 09:24 8,5 C 14,4 C 13,9 C 88 % 1030,8 hPa 0,0 l/m 2 min 0 min 386 W/m 0,0 km/h (0 Bft) 100,00 %
17.03.2020 09:26 8,7 C 15,0 C 15,0 C 87 % 1030,8 hPa 0,0 l/m 2 min 0 min 394 W/m 0,0 km/h (0 Bft) 97,87 %
17.03.2020 09:28 8,8 C 15,0 C 14,4 C 86 % 1030,8 hPa 0,0 l/m 2 min 0 min 400 W/m 0,0 km/h (0 Bft) 97,87 %
17.03.2020 09:30 9,0 C 14,4 C 14,4 C 85 % 1030,8 hPa 0,0 l/m 2 min 0 min 402 W/m 0,0 km/h (0 Bft) 95,74 %
17.03.2020 09:32 9,1 C 13,9 C 13,9 C 84 % 1030,8 hPa 0,0 l/m 2 min 0 min 394 W/m 0,0 km/h (0 Bft) 95,74 %
17.03.2020 09:34 9,3 C 13,9 C 13,9 C 83 % 1030,8 hPa 0,0 l/m 2 min 0 min 410 W/m 0,0 km/h (0 Bft) 97,83 %
17.03.2020 09:36 9,4 C 13,9 C 14,4 C 82 % 1030,8 hPa 0,0 l/m 2 min 0 min 422 W/m 0,0 km/h (0 Bft) 97,87 %
17.03.2020 09:38 9,6 C 13,9 C 14,4 C 81 % 1030,8 hPa 0,0 l/m 2 min 0 min 430 W/m 0,0 km/h (0 Bft) 91,49 %
17.03.2020 09:40 9,7 C 13,9 C 14,4 C 79 % 1030,7 hPa 0,0 l/m 2 min 0 min 432 W/m 0,0 km/h (0 Bft) 95,74 %
17.03.2020 09:42 9,8 C 14,4 C 14,4 C 79 % 1030,8 hPa 0,0 l/m 2 min 0 min 432 W/m 0,0 km/h (0 Bft) 97,87 %
17.03.2020 09:44 9,9 C 14,4 C 14,4 C 78 % 1030,8 hPa 0,0 l/m 2 min 0 min 437 W/m 0,0 km/h (0 Bft) 95,92 %
17.03.2020 09:46 10,1 C 15,0 C 13,9 C 78 % 1030,8 hPa 0,0 l/m 2 min 0 min 445 W/m 0,0 km/h (0 Bft) 97,87 %
17.03.2020 09:48 10,2 C 15,0 C 12,8 C 78 % 1030,8 hPa 0,0 l/m 2 min 0 min 451 W/m 0,0 km/h (0 Bft) 93,75 %
17.03.2020 09:50 10,2 C 15,0 C 12,2 C 77 % 1030,8 hPa 0,0 l/m 2 min 0 min 464 W/m 0,0 km/h (0 Bft) 93,62 %
17.03.2020 09:52 10,3 C 15,6 C 12,2 C 77 % 1030,8 hPa 0,0 l/m 2 min 0 min 478 W/m 0,0 km/h (0 Bft) 95,65 %
17.03.2020 09:54 10,4 C 16,7 C 12,2 C 77 % 1030,9 hPa 0,0 l/m 2 min 0 min 465 W/m 0,0 km/h (0 Bft) 94,29 %
17.03.2020 09:56 10,6 C 16,1 C 11,7 C 77 % 1030,8 hPa 0,0 l/m 2 min 0 min 466 W/m 9,7 km/h (2 Bft) 93,62 %
17.03.2020 09:58 10,7 C 16,7 C 11,1 C 77 % 1030,8 hPa 0,0 l/m 2 min 0 min 464 W/m 6,4 km/h (2 Bft) 90,91 %
17.03.2020 10:00 10,8 C 16,1 C 10,6 C 76 % 1030,8 hPa 0,0 l/m 2 min 0 min 476 W/m 16,1 km/h (3 Bft) 91,49 %
17.03.2020 10:02 10,8 C 15,6 C 10,0 C 76 % 1030,9 hPa 0,0 l/m 2 min 0 min 474 W/m 6,4 km/h (2 Bft) 94,12 %
17.03.2020 10:04 10,9 C 15,0 C 10,0 C 75 % 1030,8 hPa 0,0 l/m 2 min 0 min 476 W/m 12,9 km/h (3 Bft) 91,43 %
17.03.2020 10:06 11,0 C 15,6 C 10,0 C 75 % 1030,7 hPa 0,0 l/m 2 min 0 min 483 W/m 6,4 km/h (2 Bft) 95,65 %
17.03.2020 10:08 11,1 C 16,1 C 10,0 C 75 % 1030,7 hPa 0,0 l/m 2 min 0 min 483 W/m 12,9 km/h (3 Bft) 93,62 %
17.03.2020 10:10 11,2 C 15,6 C 10,0 C 75 % 1030,7 hPa 0,0 l/m 2 min 0 min 484 W/m 19,3 km/h (3 Bft) 95,74 %
17.03.2020 10:12 11,3 C 15,0 C 10,0 C 74 % 1030,7 hPa 0,0 l/m 2 min 0 min 500 W/m 0,0 km/h (0 Bft) 96,36 %
17.03.2020 10:14 11,3 C 15,0 C 10,0 C 74 % 1030,8 hPa 0,0 l/m 2 min 0 min 497 W/m 0,0 km/h (0 Bft) 93,62 %
17.03.2020 10:16 11,4 C 16,1 C 10,6 C 74 % 1030,7 hPa 0,0 l/m 2 min 0 min 497 W/m 6,4 km/h (2 Bft) 93,62 %
17.03.2020 10:18 11,5 C 15,6 C 10,6 C 74 % 1030,7 hPa 0,0 l/m 2 min 0 min 514 W/m 12,9 km/h (3 Bft) 93,62 %
17.03.2020 10:20 11,6 C 15,0 C 10,6 C 73 % 1030,7 hPa 0,0 l/m 2 min 0 min 526 W/m 12,9 km/h (3 Bft) 95,65 %
17.03.2020 10:22 11,6 C 15,6 C 10,6 C 73 % 1030,7 hPa 0,0 l/m 2 min 0 min 532 W/m 12,9 km/h (3 Bft) 94,00 %
17.03.2020 10:24 11,7 C 15,6 C 10,6 C 73 % 1030,8 hPa 0,0 l/m 2 min 0 min 537 W/m 12,9 km/h (3 Bft) 95,74 %
17.03.2020 10:26 11,7 C 16,1 C 10,6 C 72 % 1030,7 hPa 0,0 l/m 2 min 0 min 543 W/m 12,9 km/h (3 Bft) 97,87 %
17.03.2020 10:28 11,8 C 16,7 C 10,6 C 72 % 1030,7 hPa 0,0 l/m 2 min 0 min 540 W/m 0,0 km/h (0 Bft) 97,87 %
17.03.2020 10:30 11,8 C 16,7 C 10,6 C 72 % 1030,7 hPa 0,0 l/m 2 min 0 min 553 W/m 16,1 km/h (3 Bft) 97,87 %
17.03.2020 10:32 11,9 C 15,6 C 10,6 C 71 % 1030,8 hPa 0,0 l/m 2 min 0 min 554 W/m 6,4 km/h (2 Bft) 95,74 %
17.03.2020 10:34 12,0 C 16,7 C 11,1 C 71 % 1030,7 hPa 0,0 l/m 2 min 0 min 553 W/m 0,0 km/h (0 Bft) 97,87 %
17.03.2020 10:36 12,1 C 15,6 C 10,6 C 71 % 1030,8 hPa 0,0 l/m 2 min 0 min 557 W/m 3,2 km/h (1 Bft) 97,87 %
17.03.2020 10:38 12,1 C 16,1 C 10,6 C 70 % 1030,7 hPa 0,0 l/m 2 min 0 min 571 W/m 16,1 km/h (3 Bft) 97,83 %
17.03.2020 10:40 12,2 C 17,2 C 11,1 C 71 % 1030,7 hPa 0,0 l/m 2 min 0 min 575 W/m 0,0 km/h (0 Bft) 97,87 %
17.03.2020 10:42 12,2 C 17,2 C 11,1 C 71 % 1030,8 hPa 0,0 l/m 2 min 0 min 552 W/m 0,0 km/h (0 Bft) 97,87 %
17.03.2020 10:44 12,3 C 17,2 C 11,1 C 70 % 1030,8 hPa 0,0 l/m 2 min 0 min 556 W/m 3,2 km/h (1 Bft) 94,29 %
17.03.2020 10:46 12,3 C 17,8 C 11,1 C 70 % 1030,7 hPa 0,0 l/m 2 min 0 min 589 W/m 6,4 km/h (2 Bft) 97,87 %
17.03.2020 10:48 12,4 C 17,8 C 11,1 C 70 % 1030,8 hPa 0,0 l/m 2 min 0 min 575 W/m 3,2 km/h (1 Bft) 97,87 %
17.03.2020 10:50 12,4 C 17,2 C 11,1 C 69 % 1030,8 hPa 0,0 l/m 2 min 0 min 549 W/m 16,1 km/h (3 Bft) 95,74 %
17.03.2020 10:52 12,6 C 16,7 C 11,1 C 69 % 1030,9 hPa 0,0 l/m 2 min 0 min 590 W/m 19,3 km/h (3 Bft) 95,65 %
17.03.2020 10:54 12,6 C 16,7 C 11,1 C 68 % 1030,8 hPa 0,0 l/m 2 min 0 min 606 W/m 16,1 km/h (3 Bft) 97,87 %
17.03.2020 10:56 12,6 C 16,7 C 11,1 C 68 % 1030,8 hPa 0,0 l/m 2 min 0 min 607 W/m 16,1 km/h (3 Bft) 98,18 %
17.03.2020 10:58 12,7 C 16,7 C 11,1 C 67 % 1030,9 hPa 0,0 l/m 2 min 0 min 621 W/m 0,0 km/h (0 Bft) 98,00 %
17.03.2020 11:00 12,7 C 16,1 C 11,1 C 66 % 1030,8 hPa 0,0 l/m 2 min 0 min 618 W/m 0,0 km/h (0 Bft) 97,87 %
17.03.2020 11:02 12,7 C 16,1 C 11,1 C 67 % 1030,8 hPa 0,0 l/m 2 min 0 min 626 W/m 0,0 km/h (0 Bft) 93,62 %
17.03.2020 11:04 12,8 C 16,1 C 11,1 C 66 % 1031,0 hPa 0,0 l/m 2 min 0 min 617 W/m 6,4 km/h (2 Bft) 97,87 %
17.03.2020 11:06 12,8 C 16,7 C 11,1 C 67 % 1030,8 hPa 0,0 l/m 2 min 0 min 631 W/m 12,9 km/h (3 Bft) 97,14 %
17.03.2020 11:08 12,8 C 17,8 C 11,7 C 68 % 1030,9 hPa 0,0 l/m 2 min 0 min 610 W/m 3,2 km/h (1 Bft) 98,18 %
17.03.2020 11:10 12,9 C 17,2 C 11,7 C 68 % 1030,9 hPa 0,0 l/m 2 min 0 min 599 W/m 6,4 km/h (2 Bft) 97,87 %
17.03.2020 11:12 12,9 C 16,7 C 11,7 C 68 % 1030,9 hPa 0,0 l/m 2 min 0 min 561 W/m 6,4 km/h (2 Bft) 98,00 %
17.03.2020 11:14 12,9 C 17,2 C 11,7 C 66 % 1030,9 hPa 0,0 l/m 2 min 0 min 624 W/m 0,0 km/h (0 Bft) 95,74 %
17.03.2020 11:16 13,0 C 17,8 C 11,7 C 67 % 1030,8 hPa 0,0 l/m 2 min 0 min 626 W/m 0,0 km/h (0 Bft) 97,14 %
17.03.2020 11:18 13,1 C 18,3 C 11,7 C 69 % 1031,0 hPa 0,0 l/m 2 min 0 min 638 W/m 0,0 km/h (0 Bft) 96,36 %
17.03.2020 11:20 13,1 C 17,2 C 11,7 C 67 % 1031,0 hPa 0,0 l/m 2 min 0 min 644 W/m 0,0 km/h (0 Bft) 97,87 %
17.03.2020 11:22 13,1 C 17,2 C 11,7 C 67 % 1031,1 hPa 0,0 l/m 2 min 0 min 648 W/m 0,0 km/h (0 Bft) 98,00 %
17.03.2020 11:24 13,2 C 17,2 C 11,7 C 66 % 1031,0 hPa 0,0 l/m 2 min 0 min 651 W/m 0,0 km/h (0 Bft) 97,87 %
17.03.2020 11:26 13,2 C 17,8 C 11,7 C 65 % 1030,9 hPa 0,0 l/m 2 min 0 min 662 W/m 0,0 km/h (0 Bft) 97,87 %
17.03.2020 11:28 13,2 C 17,8 C 12,2 C 65 % 1031,0 hPa 0,0 l/m 2 min 0 min 666 W/m 25,7 km/h (4 Bft) 95,74 %
17.03.2020 11:30 13,3 C 17,2 C 12,2 C 65 % 1031,0 hPa 0,0 l/m 2 min 0 min 666 W/m 12,9 km/h (3 Bft) 95,65 %
17.03.2020 11:32 13,3 C 16,7 C 11,7 C 64 % 1031,1 hPa 0,0 l/m 2 min 0 min 663 W/m 25,7 km/h (4 Bft) 95,83 %
17.03.2020 11:34 13,3 C 17,8 C 12,2 C 64 % 1031,1 hPa 0,0 l/m 2 min 0 min 600 W/m 16,1 km/h (3 Bft) 97,14 %
17.03.2020 11:36 13,4 C 17,8 C 12,2 C 65 % 1031,0 hPa 0,0 l/m 2 min 0 min 560 W/m 0,0 km/h (0 Bft) 97,87 %
17.03.2020 11:38 13,4 C 18,9 C 12,2 C 67 % 1031,0 hPa 0,0 l/m 2 min 0 min 618 W/m 6,4 km/h (2 Bft) 97,87 %
17.03.2020 11:40 13,6 C 19,4 C 12,2 C 66 % 1031,1 hPa 0,0 l/m 2 min 0 min 662 W/m 0,0 km/h (0 Bft) 97,83 %
17.03.2020 11:42 13,6 C 18,9 C 12,2 C 66 % 1031,0 hPa 0,0 l/m 2 min 0 min 679 W/m 0,0 km/h (0 Bft) 98,18 %
17.03.2020 11:44 13,6 C 17,8 C 12,2 C 64 % 1031,0 hPa 0,0 l/m 2 min 0 min 683 W/m 0,0 km/h (0 Bft) 96,00 %
17.03.2020 11:46 13,7 C 17,8 C 12,2 C 63 % 1030,9 hPa 0,0 l/m 2 min 0 min 683 W/m 16,1 km/h (3 Bft) 95,74 %
17.03.2020 11:48 13,7 C 18,9 C 12,8 C 64 % 1031,0 hPa 0,0 l/m 2 min 0 min 673 W/m 3,2 km/h (1 Bft) 97,87 %
17.03.2020 11:50 13,8 C 19,4 C 12,8 C 64 % 1030,9 hPa 0,0 l/m 2 min 0 min 682 W/m 3,2 km/h (1 Bft) 97,87 %
17.03.2020 11:52 13,9 C 20,0 C 12,8 C 65 % 1030,9 hPa 0,0 l/m 2 min 0 min 678 W/m 0,0 km/h (0 Bft) 97,87 %
17.03.2020 11:54 13,9 C 18,9 C 12,8 C 63 % 1030,9 hPa 0,0 l/m 2 min 0 min 686 W/m 19,3 km/h (3 Bft) 97,14 %
17.03.2020 11:56 14,0 C 16,7 C 12,2 C 62 % 1030,9 hPa 0,0 l/m 2 min 0 min 692 W/m 19,3 km/h (3 Bft) 98,18 %
17.03.2020 11:58 14,0 C 17,8 C 12,8 C 62 % 1030,8 hPa 0,0 l/m 2 min 0 min 696 W/m 9,7 km/h (2 Bft) 98,00 %
17.03.2020 12:00 14,1 C 18,3 C 12,8 C 62 % 1030,8 hPa 0,0 l/m 2 min 0 min 702 W/m 3,2 km/h (1 Bft) 97,87 %
17.03.2020 12:02 14,1 C 18,3 C 12,8 C 62 % 1030,8 hPa 0,0 l/m 2 min 0 min 696 W/m 3,2 km/h (1 Bft) 95,74 %
17.03.2020 12:04 14,1 C 16,7 C 12,2 C 63 % 1030,9 hPa 0,0 l/m 2 min 0 min 496 W/m 3,2 km/h (1 Bft) 91,49 %
17.03.2020 12:08 14,0 C 16,1 C 12,2 C 62 % 1030,9 hPa 0,0 l/m 4 min 0 min 384 W/m 12,9 km/h (3 Bft) 93,18 %
17.03.2020 12:10 13,9 C 17,2 C 12,2 C 63 % 1030,9 hPa 0,0 l/m 2 min 0 min 552 W/m 0,0 km/h (0 Bft) 94,00 %
17.03.2020 12:12 13,9 C 18,3 C 12,2 C 63 % 1030,8 hPa 0,0 l/m 2 min 0 min 678 W/m 0,0 km/h (0 Bft) 93,88 %
17.03.2020 12:14 13,9 C 18,3 C 12,8 C 62 % 1030,9 hPa 0,0 l/m 2 min 0 min 695 W/m 0,0 km/h (0 Bft) 93,62 %
17.03.2020 12:16 14,0 C 18,9 C 12,8 C 62 % 1030,8 hPa 0,0 l/m 2 min 0 min 697 W/m 0,0 km/h (0 Bft) 89,36 %
17.03.2020 12:18 14,0 C 18,3 C 12,8 C 60 % 1030,8 hPa 0,0 l/m 2 min 0 min 701 W/m 0,0 km/h (0 Bft) 97,56 %
17.03.2020 12:20 14,1 C 18,9 C 12,8 C 60 % 1030,7 hPa 0,0 l/m 2 min 0 min 694 W/m 0,0 km/h (0 Bft) 92,00 %
17.03.2020 12:22 14,1 C 19,4 C 12,8 C 61 % 1030,7 hPa 0,0 l/m 2 min 0 min 688 W/m 0,0 km/h (0 Bft) 89,80 %
17.03.2020 12:24 14,2 C 19,4 C 13,3 C 60 % 1030,7 hPa 0,0 l/m 2 min 0 min 680 W/m 3,2 km/h (1 Bft) 93,62 %
17.03.2020 12:26 14,3 C 20,6 C 13,3 C 61 % 1030,6 hPa 0,0 l/m 2 min 0 min 691 W/m 0,0 km/h (0 Bft) 93,62 %
17.03.2020 12:28 14,3 C 20,6 C 13,3 C 61 % 1030,7 hPa 0,0 l/m 2 min 0 min 704 W/m 0,0 km/h (0 Bft) 93,62 %
17.03.2020 12:30 14,4 C 20,6 C 13,3 C 60 % 1030,6 hPa 0,0 l/m 2 min 0 min 697 W/m 0,0 km/h (0 Bft) 93,62 %
17.03.2020 12:32 14,6 C 19,4 C 13,3 C 61 % 1030,7 hPa 0,0 l/m 2 min 0 min 658 W/m 22,5 km/h (4 Bft) 92,68 %
17.03.2020 12:34 14,6 C 18,9 C 13,3 C 59 % 1030,6 hPa 0,0 l/m 2 min 0 min 687 W/m 19,3 km/h (3 Bft) 91,49 %
17.03.2020 12:36 14,6 C 18,9 C 13,3 C 59 % 1030,6 hPa 0,0 l/m 2 min 0 min 705 W/m 12,9 km/h (3 Bft) 94,00 %
17.03.2020 12:38 14,6 C 17,8 C 13,9 C 58 % 1030,6 hPa 0,0 l/m 2 min 0 min 676 W/m 22,5 km/h (4 Bft) 93,88 %
17.03.2020 12:40 14,7 C 18,9 C 15,0 C 60 % 1030,6 hPa 0,0 l/m 2 min 0 min 620 W/m 6,4 km/h (2 Bft) 93,62 %
17.03.2020 12:42 14,7 C 18,9 C 16,7 C 60 % 1030,6 hPa 0,0 l/m 2 min 0 min 681 W/m 12,9 km/h (3 Bft) 95,74 %
17.03.2020 12:44 14,7 C 18,3 C 18,3 C 59 % 1030,7 hPa 0,0 l/m 2 min 0 min 701 W/m 22,5 km/h (4 Bft) 93,62 %
17.03.2020 12:46 14,7 C 17,8 C 18,3 C 57 % 1030,6 hPa 0,0 l/m 2 min 0 min 698 W/m 3,2 km/h (1 Bft) 95,12 %
17.03.2020 12:48 14,7 C 18,9 C 19,4 C 58 % 1030,6 hPa 0,0 l/m 2 min 0 min 698 W/m 12,9 km/h (3 Bft) 98,00 %
17.03.2020 12:50 14,8 C 18,9 C 20,0 C 58 % 1030,6 hPa 0,0 l/m 2 min 0 min 698 W/m 3,2 km/h (1 Bft) 95,65 %
17.03.2020 12:52 14,8 C 18,9 C 19,4 C 56 % 1030,6 hPa 0,0 l/m 2 min 0 min 691 W/m 3,2 km/h (1 Bft) 98,00 %
17.03.2020 12:54 14,8 C 19,4 C 20,0 C 57 % 1030,6 hPa 0,0 l/m 2 min 0 min 679 W/m 0,0 km/h (0 Bft) 97,87 %
17.03.2020 12:56 14,9 C 18,9 C 20,0 C 56 % 1030,6 hPa 0,0 l/m 2 min 0 min 691 W/m 0,0 km/h (0 Bft) 95,12 %
17.03.2020 12:58 14,9 C 20,0 C 20,6 C 57 % 1030,6 hPa 0,0 l/m 2 min 0 min 694 W/m 0,0 km/h (0 Bft) 98,00 %
17.03.2020 13:00 14,9 C 19,4 C 20,6 C 56 % 1030,6 hPa 0,0 l/m 2 min 0 min 686 W/m 9,7 km/h (2 Bft) 97,96 %
17.03.2020 13:02 14,9 C 18,9 C 20,0 C 55 % 1030,6 hPa 0,0 l/m 2 min 0 min 655 W/m 0,0 km/h (0 Bft) 97,87 %
17.03.2020 13:04 15,0 C 19,4 C 19,4 C 56 % 1030,6 hPa 0,0 l/m 2 min 0 min 613 W/m 0,0 km/h (0 Bft) 95,12 %
17.03.2020 13:06 15,0 C 18,9 C 19,4 C 56 % 1030,6 hPa 0,0 l/m 2 min 0 min 608 W/m 0,0 km/h (0 Bft) 97,87 %
17.03.2020 13:08 15,0 C 18,3 C 19,4 C 55 % 1030,5 hPa 0,0 l/m 2 min 0 min 627 W/m 0,0 km/h (0 Bft) 98,00 %
17.03.2020 13:10 15,0 C 20,0 C 21,1 C 56 % 1030,5 hPa 0,0 l/m 2 min 0 min 654 W/m 0,0 km/h (0 Bft) 95,74 %
17.03.2020 13:12 15,0 C 19,4 C 20,6 C 56 % 1030,5 hPa 0,0 l/m 2 min 0 min 655 W/m 16,1 km/h (3 Bft) 95,92 %
17.03.2020 13:14 15,0 C 17,8 C 19,4 C 55 % 1030,5 hPa 0,0 l/m 2 min 0 min 646 W/m 0,0 km/h (0 Bft) 97,87 %
17.03.2020 13:16 15,0 C 18,9 C 20,0 C 55 % 1030,5 hPa 0,0 l/m 2 min 0 min 636 W/m 0,0 km/h (0 Bft) 97,56 %
17.03.2020 13:18 15,1 C 18,9 C 19,4 C 57 % 1030,4 hPa 0,0 l/m 2 min 0 min 562 W/m 0,0 km/h (0 Bft) 98,00 %
17.03.2020 13:20 15,1 C 18,9 C 19,4 C 57 % 1030,5 hPa 0,0 l/m 2 min 0 min 467 W/m 0,0 km/h (0 Bft) 93,88 %
17.03.2020 13:22 15,1 C 18,9 C 18,3 C 54 % 1030,4 hPa 0,0 l/m 2 min 0 min 643 W/m 3,2 km/h (1 Bft) 95,74 %
17.03.2020 13:24 15,1 C 18,9 C 17,8 C 55 % 1030,4 hPa 0,0 l/m 2 min 0 min 683 W/m 12,9 km/h (3 Bft) 97,62 %
17.03.2020 13:26 15,1 C 18,9 C 17,2 C 55 % 1030,4 hPa 0,0 l/m 2 min 0 min 681 W/m 12,9 km/h (3 Bft) 97,83 %
17.03.2020 13:28 15,1 C 20,0 C 17,2 C 56 % 1030,4 hPa 0,0 l/m 2 min 0 min 675 W/m 0,0 km/h (0 Bft) 98,00 %
17.03.2020 13:30 15,2 C 20,6 C 17,8 C 58 % 1030,4 hPa 0,0 l/m 2 min 0 min 660 W/m 0,0 km/h (0 Bft) 98,00 %
17.03.2020 13:32 15,2 C 21,1 C 17,2 C 57 % 1030,3 hPa 0,0 l/m 2 min 0 min 663 W/m 0,0 km/h (0 Bft) 97,83 %
17.03.2020 13:34 15,3 C 21,1 C 16,7 C 58 % 1030,3 hPa 0,0 l/m 2 min 0 min 673 W/m 0,0 km/h (0 Bft) 97,87 %
17.03.2020 13:36 15,4 C 21,1 C 16,1 C 56 % 1030,3 hPa 0,0 l/m 2 min 0 min 681 W/m 0,0 km/h (0 Bft) 95,24 %
17.03.2020 13:38 15,4 C 21,1 C 15,6 C 56 % 1030,3 hPa 0,0 l/m 2 min 0 min 679 W/m 0,0 km/h (0 Bft) 97,83 %
17.03.2020 13:40 15,5 C 21,7 C 15,6 C 56 % 1030,2 hPa 0,0 l/m 2 min 0 min 679 W/m 0,0 km/h (0 Bft) 97,87 %
17.03.2020 13:42 15,6 C 21,1 C 15,0 C 55 % 1030,2 hPa 0,0 l/m 2 min 0 min 665 W/m 3,2 km/h (1 Bft) 97,87 %
17.03.2020 13:44 15,7 C 21,1 C 15,0 C 55 % 1030,1 hPa 0,0 l/m 2 min 0 min 654 W/m 9,7 km/h (2 Bft) 98,00 %
17.03.2020 13:46 15,7 C 21,1 C 15,0 C 55 % 1030,1 hPa 0,0 l/m 2 min 0 min 665 W/m 6,4 km/h (2 Bft) 97,96 %
17.03.2020 13:48 15,8 C 22,2 C 15,0 C 55 % 1030,1 hPa 0,0 l/m 2 min 0 min 674 W/m 6,4 km/h (2 Bft) 97,87 %
17.03.2020 13:50 15,9 C 21,1 C 15,0 C 55 % 1030,2 hPa 0,0 l/m 2 min 0 min 665 W/m 3,2 km/h (1 Bft) 100,00 %
17.03.2020 13:52 15,9 C 20,6 C 15,0 C 55 % 1030,1 hPa 0,0 l/m 2 min 0 min 662 W/m 6,4 km/h (2 Bft) 100,00 %
17.03.2020 13:54 15,9 C 21,1 C 15,0 C 55 % 1030,2 hPa 0,0 l/m 2 min 0 min 667 W/m 0,0 km/h (0 Bft) 100,00 %
17.03.2020 13:56 16,0 C 21,1 C 15,0 C 55 % 1030,2 hPa 0,0 l/m 2 min 0 min 670 W/m 0,0 km/h (0 Bft) 100,00 %
17.03.2020 13:58 16,0 C 20,0 C 14,4 C 52 % 1030,1 hPa 0,0 l/m 2 min 0 min 674 W/m 12,9 km/h (3 Bft) 100,00 %
17.03.2020 14:00 16,0 C 20,0 C 14,4 C 52 % 1030,2 hPa 0,0 l/m 2 min 0 min 669 W/m 12,9 km/h (3 Bft) 100,00 %
17.03.2020 14:02 15,9 C 18,9 C 14,4 C 51 % 1030,2 hPa 0,0 l/m 2 min 0 min 664 W/m 22,5 km/h (4 Bft) 100,00 %
17.03.2020 14:04 15,9 C 20,0 C 14,4 C 51 % 1030,1 hPa 0,0 l/m 2 min 0 min 664 W/m 3,2 km/h (1 Bft) 100,00 %
17.03.2020 14:06 15,9 C 19,4 C 14,4 C 51 % 1030,1 hPa 0,0 l/m 2 min 0 min 677 W/m 16,1 km/h (3 Bft) 100,00 %
17.03.2020 14:08 15,8 C 19,4 C 14,4 C 51 % 1030,1 hPa 0,0 l/m 2 min 0 min 634 W/m 0,0 km/h (0 Bft) 100,00 %
17.03.2020 14:10 15,8 C 20,0 C 14,4 C 52 % 1030,1 hPa 0,0 l/m 2 min 0 min 635 W/m 0,0 km/h (0 Bft) 100,00 %
17.03.2020 14:12 15,8 C 20,0 C 15,0 C 52 % 1030,1 hPa 0,0 l/m 2 min 0 min 578 W/m 0,0 km/h (0 Bft) 100,00 %
17.03.2020 14:14 15,8 C 19,4 C 15,0 C 52 % 1030,1 hPa 0,0 l/m 2 min 0 min 563 W/m 0,0 km/h (0 Bft) 100,00 %
17.03.2020 14:16 15,8 C 18,9 C 14,4 C 51 % 1030,1 hPa 0,0 l/m 2 min 0 min 559 W/m 0,0 km/h (0 Bft) 100,00 %
17.03.2020 14:18 15,8 C 18,9 C 14,4 C 50 % 1030,0 hPa 0,0 l/m 2 min 0 min 617 W/m 3,2 km/h (1 Bft) 100,00 %
17.03.2020 14:20 15,8 C 18,9 C 14,4 C 52 % 1030,0 hPa 0,0 l/m 2 min 0 min 637 W/m 6,4 km/h (2 Bft) 100,00 %
17.03.2020 14:22 15,7 C 19,4 C 15,0 C 52 % 1030,0 hPa 0,0 l/m 2 min 0 min 648 W/m 16,1 km/h (3 Bft) 100,00 %
17.03.2020 14:24 15,7 C 20,0 C 15,0 C 53 % 1030,0 hPa 0,0 l/m 2 min 0 min 642 W/m 3,2 km/h (1 Bft) 97,87 %
17.03.2020 14:26 15,8 C 20,6 C 15,0 C 52 % 1029,9 hPa 0,0 l/m 2 min 0 min 648 W/m 12,9 km/h (3 Bft) 97,56 %
17.03.2020 14:28 15,8 C 20,0 C 15,0 C 52 % 1030,0 hPa 0,0 l/m 2 min 0 min 632 W/m 12,9 km/h (3 Bft) 98,00 %
17.03.2020 14:30 15,8 C 20,6 C 15,0 C 52 % 1029,9 hPa 0,0 l/m 2 min 0 min 614 W/m 6,4 km/h (2 Bft) 95,74 %
17.03.2020 14:32 15,9 C 19,4 C 15,0 C 53 % 1030,0 hPa 0,0 l/m 2 min 0 min 602 W/m 0,0 km/h (0 Bft) 97,96 %
17.03.2020 14:34 15,9 C 20,0 C 14,4 C 53 % 1030,0 hPa 0,0 l/m 2 min 0 min 562 W/m 3,2 km/h (1 Bft) 93,62 %
17.03.2020 14:36 15,9 C 18,9 C 14,4 C 52 % 1029,9 hPa 0,0 l/m 2 min 0 min 541 W/m 12,9 km/h (3 Bft) 97,87 %
17.03.2020 14:38 15,9 C 19,4 C 14,4 C 52 % 1029,9 hPa 0,0 l/m 2 min 0 min 571 W/m 16,1 km/h (3 Bft) 95,12 %
17.03.2020 14:40 15,9 C 19,4 C 14,4 C 53 % 1029,8 hPa 0,0 l/m 2 min 0 min 584 W/m 6,4 km/h (2 Bft) 95,74 %
17.03.2020 14:42 15,9 C 20,0 C 15,0 C 53 % 1029,9 hPa 0,0 l/m 2 min 0 min 594 W/m 12,9 km/h (3 Bft) 96,00 %
17.03.2020 14:44 15,9 C 20,0 C 15,0 C 52 % 1029,9 hPa 0,0 l/m 2 min 0 min 571 W/m 0,0 km/h (0 Bft) 95,92 %
17.03.2020 14:46 15,9 C 19,4 C 15,0 C 51 % 1029,8 hPa 0,0 l/m 2 min 0 min 569 W/m 0,0 km/h (0 Bft) 95,74 %
17.03.2020 14:48 15,9 C 20,0 C 15,0 C 52 % 1029,8 hPa 0,0 l/m 2 min 0 min 583 W/m 3,2 km/h (1 Bft) 95,74 %
17.03.2020 14:50 16,0 C 20,0 C 15,0 C 52 % 1029,8 hPa 0,0 l/m 2 min 0 min 578 W/m 3,2 km/h (1 Bft) 97,56 %
17.03.2020 14:52 16,0 C 19,4 C 15,0 C 48 % 1029,8 hPa 0,0 l/m 2 min 0 min 587 W/m 16,1 km/h (3 Bft) 94,00 %
17.03.2020 14:54 16,0 C 19,4 C 15,0 C 49 % 1029,7 hPa 0,0 l/m 2 min 0 min 572 W/m 0,0 km/h (0 Bft) 93,88 %
17.03.2020 14:56 16,0 C 19,4 C 15,0 C 50 % 1029,7 hPa 0,0 l/m 2 min 0 min 573 W/m 0,0 km/h (0 Bft) 95,74 %
17.03.2020 14:58 16,0 C 18,9 C 14,4 C 48 % 1029,7 hPa 0,0 l/m 2 min 0 min 575 W/m 3,2 km/h (1 Bft) 95,74 %
17.03.2020 15:00 16,0 C 18,9 C 14,4 C 47 % 1029,7 hPa 0,0 l/m 2 min 0 min 529 W/m 12,9 km/h (3 Bft) 95,74 %
17.03.2020 15:02 15,9 C 18,9 C 15,0 C 48 % 1029,7 hPa 0,0 l/m 2 min 0 min 561 W/m 6,4 km/h (2 Bft) 95,12 %
17.03.2020 15:04 15,9 C 19,4 C 15,0 C 47 % 1029,6 hPa 0,0 l/m 2 min 0 min 565 W/m 3,2 km/h (1 Bft) 97,87 %
17.03.2020 15:06 16,0 C 21,1 C 15,0 C 49 % 1029,6 hPa 0,0 l/m 2 min 0 min 562 W/m 0,0 km/h (0 Bft) 97,87 %
17.03.2020 15:08 16,1 C 21,1 C 15,0 C 49 % 1029,6 hPa 0,0 l/m 2 min 0 min 558 W/m 0,0 km/h (0 Bft) 97,87 %
17.03.2020 15:10 16,1 C 20,6 C 15,0 C 48 % 1029,6 hPa 0,0 l/m 2 min 0 min 553 W/m 0,0 km/h (0 Bft) 95,74 %
17.03.2020 15:12 16,2 C 21,1 C 15,0 C 49 % 1029,6 hPa 0,0 l/m 2 min 0 min 546 W/m 0,0 km/h (0 Bft) 97,96 %
17.03.2020 15:14 16,2 C 21,1 C 15,0 C 47 % 1029,6 hPa 0,0 l/m 2 min 0 min 544 W/m 0,0 km/h (0 Bft) 98,00 %
17.03.2020 15:16 16,3 C 21,1 C 15,0 C 47 % 1029,5 hPa 0,0 l/m 2 min 0 min 539 W/m 3,2 km/h (1 Bft) 97,83 %
17.03.2020 15:18 16,3 C 21,1 C 15,0 C 47 % 1029,5 hPa 0,0 l/m 2 min 0 min 534 W/m 0,0 km/h (0 Bft) 97,87 %
17.03.2020 15:20 16,4 C 21,1 C 15,0 C 48 % 1029,5 hPa 0,0 l/m 2 min 0 min 528 W/m 3,2 km/h (1 Bft) 97,62 %
17.03.2020 15:22 16,4 C 21,7 C 15,6 C 49 % 1029,5 hPa 0,0 l/m 2 min 0 min 523 W/m 0,0 km/h (0 Bft) 100,00 %
17.03.2020 15:24 16,4 C 20,0 C 15,6 C 47 % 1029,4 hPa 0,0 l/m 2 min 0 min 518 W/m 3,2 km/h (1 Bft) 100,00 %
17.03.2020 15:26 16,5 C 20,6 C 15,6 C 48 % 1029,4 hPa 0,0 l/m 2 min 0 min 513 W/m 12,9 km/h (3 Bft) 100,00 %
17.03.2020 15:28 16,6 C 21,7 C 15,6 C 47 % 1029,4 hPa 0,0 l/m 2 min 0 min 509 W/m 3,2 km/h (1 Bft) 100,00 %
17.03.2020 15:30 16,6 C 21,1 C 15,6 C 47 % 1029,5 hPa 0,0 l/m 2 min 0 min 503 W/m 9,7 km/h (2 Bft) 100,00 %
17.03.2020 15:32 16,7 C 20,6 C 17,2 C 47 % 1029,5 hPa 0,0 l/m 2 min 0 min 498 W/m 6,4 km/h (2 Bft) 100,00 %
17.03.2020 15:34 16,7 C 20,6 C 18,3 C 46 % 1029,5 hPa 0,0 l/m 2 min 0 min 494 W/m 0,0 km/h (0 Bft) 100,00 %
17.03.2020 15:36 16,7 C 20,6 C 18,9 C 48 % 1029,6 hPa 0,0 l/m 2 min 0 min 490 W/m 0,0 km/h (0 Bft) 100,00 %
17.03.2020 15:38 16,7 C 20,6 C 18,9 C 48 % 1029,6 hPa 0,0 l/m 2 min 0 min 484 W/m 0,0 km/h (0 Bft) 97,87 %
17.03.2020 15:40 16,8 C 21,1 C 18,9 C 47 % 1029,6 hPa 0,0 l/m 2 min 0 min 480 W/m 0,0 km/h (0 Bft) 100,00 %
17.03.2020 15:42 16,8 C 20,0 C 18,9 C 46 % 1029,6 hPa 0,0 l/m 2 min 0 min 475 W/m 0,0 km/h (0 Bft) 100,00 %
17.03.2020 15:44 16,8 C 20,0 C 19,4 C 46 % 1029,6 hPa 0,0 l/m 2 min 0 min 470 W/m 6,4 km/h (2 Bft) 100,00 %
17.03.2020 15:46 16,8 C 19,4 C 18,9 C 46 % 1029,6 hPa 0,0 l/m 2 min 0 min 464 W/m 3,2 km/h (1 Bft) 100,00 %
17.03.2020 15:48 16,8 C 20,0 C 17,2 C 45 % 1029,6 hPa 0,0 l/m 2 min 0 min 461 W/m 3,2 km/h (1 Bft) 95,74 %
17.03.2020 15:50 16,8 C 20,6 C 16,7 C 47 % 1029,6 hPa 0,0 l/m 2 min 0 min 458 W/m 3,2 km/h (1 Bft) 100,00 %
17.03.2020 15:52 16,8 C 20,0 C 16,1 C 46 % 1029,6 hPa 0,0 l/m 2 min 0 min 454 W/m 3,2 km/h (1 Bft) 100,00 %
17.03.2020 15:54 16,8 C 20,0 C 16,1 C 45 % 1029,5 hPa 0,0 l/m 2 min 0 min 448 W/m 0,0 km/h (0 Bft) 100,00 %
17.03.2020 15:56 16,8 C 19,4 C 16,7 C 45 % 1029,5 hPa 0,0 l/m 2 min 0 min 433 W/m 19,3 km/h (3 Bft) 100,00 %
17.03.2020 15:58 16,7 C 18,9 C 17,2 C 45 % 1029,4 hPa 0,0 l/m 2 min 0 min 400 W/m 3,2 km/h (1 Bft) 100,00 %
17.03.2020 16:00 16,7 C 18,3 C 16,7 C 46 % 1029,4 hPa 0,0 l/m 2 min 0 min 354 W/m 6,4 km/h (2 Bft) 100,00 %
17.03.2020 16:02 16,7 C 18,3 C 16,1 C 46 % 1029,5 hPa 0,0 l/m 2 min 0 min 372 W/m 6,4 km/h (2 Bft) 100,00 %
17.03.2020 16:04 16,6 C 18,9 C 17,2 C 46 % 1029,4 hPa 0,0 l/m 2 min 0 min 382 W/m 3,2 km/h (1 Bft) 100,00 %
17.03.2020 16:06 16,6 C 18,9 C 18,9 C 46 % 1029,4 hPa 0,0 l/m 2 min 0 min 396 W/m 0,0 km/h (0 Bft) 100,00 %
17.03.2020 16:08 16,6 C 19,4 C 18,9 C 47 % 1029,4 hPa 0,0 l/m 2 min 0 min 413 W/m 0,0 km/h (0 Bft) 100,00 %
17.03.2020 16:10 16,6 C 19,4 C 18,3 C 47 % 1029,4 hPa 0,0 l/m 2 min 0 min 416 W/m 0,0 km/h (0 Bft) 100,00 %
17.03.2020 16:12 16,6 C 19,4 C 18,3 C 47 % 1029,5 hPa 0,0 l/m 2 min 0 min 407 W/m 0,0 km/h (0 Bft) 97,87 %
17.03.2020 16:14 16,6 C 19,4 C 19,4 C 48 % 1029,4 hPa 0,0 l/m 2 min 0 min 402 W/m 3,2 km/h (1 Bft) 98,00 %
17.03.2020 16:16 16,6 C 20,0 C 20,6 C 47 % 1029,4 hPa 0,0 l/m 2 min 0 min 388 W/m 0,0 km/h (0 Bft) 100,00 %
17.03.2020 16:18 16,6 C 20,0 C 21,1 C 47 % 1029,4 hPa 0,0 l/m 2 min 0 min 367 W/m 3,2 km/h (1 Bft) 100,00 %
17.03.2020 16:20 16,6 C 19,4 C 20,0 C 47 % 1029,5 hPa 0,0 l/m 2 min 0 min 378 W/m 12,9 km/h (3 Bft) 100,00 %
17.03.2020 16:22 16,6 C 19,4 C 19,4 C 46 % 1029,5 hPa 0,0 l/m 2 min 0 min 372 W/m 0,0 km/h (0 Bft) 98,00 %
17.03.2020 16:24 16,6 C 20,0 C 17,8 C 46 % 1029,5 hPa 0,0 l/m 2 min 0 min 362 W/m 3,2 km/h (1 Bft) 100,00 %
17.03.2020 16:26 16,6 C 20,0 C 17,2 C 47 % 1029,4 hPa 0,0 l/m 2 min 0 min 361 W/m 6,4 km/h (2 Bft) 100,00 %
17.03.2020 16:28 16,6 C 19,4 C 16,1 C 46 % 1029,4 hPa 0,0 l/m 2 min 0 min 356 W/m 3,2 km/h (1 Bft) 100,00 %
17.03.2020 16:30 16,6 C 19,4 C 15,6 C 47 % 1029,4 hPa 0,0 l/m 2 min 0 min 350 W/m 6,4 km/h (2 Bft) 98,00 %
17.03.2020 16:32 16,6 C 18,9 C 15,0 C 46 % 1029,4 hPa 0,0 l/m 2 min 0 min 343 W/m 12,9 km/h (3 Bft) 100,00 %
17.03.2020 16:34 16,6 C 18,9 C 15,0 C 45 % 1029,3 hPa 0,0 l/m 2 min 0 min 336 W/m 6,4 km/h (2 Bft) 100,00 %
17.03.2020 16:36 16,6 C 19,4 C 15,0 C 46 % 1029,3 hPa 0,0 l/m 2 min 0 min 330 W/m 0,0 km/h (0 Bft) 97,87 %
17.03.2020 16:38 16,6 C 19,4 C 14,4 C 48 % 1029,3 hPa 0,0 l/m 2 min 0 min 322 W/m 0,0 km/h (0 Bft) 100,00 %
17.03.2020 16:40 16,6 C 18,9 C 14,4 C 46 % 1029,2 hPa 0,0 l/m 2 min 0 min 318 W/m 0,0 km/h (0 Bft) 97,87 %
17.03.2020 16:42 16,6 C 18,3 C 14,4 C 46 % 1029,3 hPa 0,0 l/m 2 min 0 min 312 W/m 12,9 km/h (3 Bft) 100,00 %
17.03.2020 16:44 16,6 C 17,8 C 14,4 C 45 % 1029,2 hPa 0,0 l/m 2 min 0 min 307 W/m 16,1 km/h (3 Bft) 97,96 %
17.03.2020 16:46 16,5 C 17,8 C 14,4 C 46 % 1029,2 hPa 0,0 l/m 2 min 0 min 301 W/m 0,0 km/h (0 Bft) 100,00 %
17.03.2020 16:48 16,4 C 18,9 C 15,0 C 46 % 1029,2 hPa 0,0 l/m 2 min 0 min 294 W/m 0,0 km/h (0 Bft) 97,87 %
17.03.2020 16:50 16,4 C 18,9 C 15,6 C 47 % 1029,2 hPa 0,0 l/m 2 min 0 min 285 W/m 0,0 km/h (0 Bft) 97,56 %
17.03.2020 16:52 16,4 C 18,3 C 15,0 C 47 % 1029,3 hPa 0,0 l/m 2 min 0 min 271 W/m 0,0 km/h (0 Bft) 98,00 %
17.03.2020 16:54 16,4 C 17,2 C 13,9 C 45 % 1029,2 hPa 0,0 l/m 2 min 0 min 260 W/m 12,9 km/h (3 Bft) 95,92 %
17.03.2020 16:56 16,3 C 16,7 C 13,9 C 44 % 1029,2 hPa 0,0 l/m 2 min 0 min 167 W/m 6,4 km/h (2 Bft) 93,62 %
17.03.2020 16:58 16,2 C 15,6 C 13,9 C 46 % 1029,2 hPa 0,0 l/m 0 min 0 min 50 W/m 0,0 km/h (0 Bft) 95,12 %
17.03.2020 17:00 16,2 C 15,0 C 13,3 C 45 % 1029,2 hPa 0,0 l/m 0 min 0 min 47 W/m 3,2 km/h (1 Bft) 96,00 %
17.03.2020 17:02 16,1 C 14,4 C 13,3 C 46 % 1029,3 hPa 0,0 l/m 0 min 0 min 49 W/m 12,9 km/h (3 Bft) 93,62 %
17.03.2020 17:04 15,9 C 14,4 C 13,3 C 47 % 1029,3 hPa 0,0 l/m 0 min 0 min 48 W/m 0,0 km/h (0 Bft) 95,92 %
17.03.2020 17:06 15,8 C 14,4 C 13,3 C 47 % 1029,3 hPa 0,0 l/m 0 min 0 min 51 W/m 3,2 km/h (1 Bft) 95,74 %
17.03.2020 17:08 15,7 C 14,4 C 13,3 C 47 % 1029,3 hPa 0,0 l/m 0 min 0 min 49 W/m 0,0 km/h (0 Bft) 93,62 %
17.03.2020 17:10 15,7 C 14,4 C 13,3 C 47 % 1029,2 hPa 0,0 l/m 0 min 0 min 47 W/m 0,0 km/h (0 Bft) 91,49 %
17.03.2020 17:12 15,6 C 14,4 C 13,3 C 47 % 1029,2 hPa 0,0 l/m 0 min 0 min 46 W/m 0,0 km/h (0 Bft) 93,62 %
17.03.2020 17:14 15,5 C 13,9 C 13,3 C 46 % 1029,1 hPa 0,0 l/m 0 min 0 min 47 W/m 16,1 km/h (3 Bft) 90,24 %
17.03.2020 17:16 15,4 C 13,9 C 13,3 C 47 % 1029,1 hPa 0,0 l/m 0 min 0 min 47 W/m 12,9 km/h (3 Bft) 94,00 %
17.03.2020 17:18 15,3 C 13,9 C 13,3 C 46 % 1029,1 hPa 0,0 l/m 0 min 0 min 43 W/m 0,0 km/h (0 Bft) 93,88 %
17.03.2020 17:20 15,2 C 13,9 C 13,3 C 46 % 1029,1 hPa 0,0 l/m 0 min 0 min 40 W/m 9,7 km/h (2 Bft) 93,62 %
17.03.2020 17:22 15,2 C 13,9 C 13,3 C 47 % 1029,1 hPa 0,0 l/m 0 min 0 min 36 W/m 6,4 km/h (2 Bft) 92,68 %
17.03.2020 17:24 15,1 C 13,9 C 12,8 C 47 % 1029,1 hPa 0,0 l/m 0 min 0 min 35 W/m 3,2 km/h (1 Bft) 93,62 %
17.03.2020 17:26 15,1 C 13,9 C 12,8 C 47 % 1029,1 hPa 0,0 l/m 0 min 0 min 37 W/m 6,4 km/h (2 Bft) 93,62 %
17.03.2020 17:28 15,0 C 13,9 C 12,8 C 46 % 1029,2 hPa 0,0 l/m 0 min 0 min 40 W/m 6,4 km/h (2 Bft) 91,49 %
17.03.2020 17:30 14,9 C 13,9 C 12,8 C 46 % 1029,1 hPa 0,0 l/m 0 min 0 min 39 W/m 0,0 km/h (0 Bft) 91,84 %
17.03.2020 17:32 14,9 C 13,3 C 12,8 C 46 % 1029,2 hPa 0,0 l/m 0 min 0 min 39 W/m 22,5 km/h (4 Bft) 92,00 %
17.03.2020 17:34 14,8 C 13,3 C 12,8 C 46 % 1029,1 hPa 0,0 l/m 0 min 0 min 39 W/m 9,7 km/h (2 Bft) 91,49 %
17.03.2020 17:36 14,7 C 13,3 C 12,8 C 46 % 1029,1 hPa 0,0 l/m 0 min 0 min 40 W/m 0,0 km/h (0 Bft) 95,65 %
17.03.2020 17:38 14,7 C 13,3 C 12,8 C 46 % 1029,1 hPa 0,0 l/m 0 min 0 min 40 W/m 0,0 km/h (0 Bft) 97,62 %
17.03.2020 17:40 14,6 C 13,3 C 12,8 C 47 % 1029,0 hPa 0,0 l/m 0 min 0 min 39 W/m 0,0 km/h (0 Bft) 93,62 %
17.03.2020 17:42 14,6 C 13,3 C 12,8 C 47 % 1029,0 hPa 0,0 l/m 0 min 0 min 37 W/m 0,0 km/h (0 Bft) 93,48 %
17.03.2020 17:44 14,5 C 13,3 C 12,2 C 47 % 1029,1 hPa 0,0 l/m 0 min 0 min 35 W/m 0,0 km/h (0 Bft) 94,00 %
17.03.2020 17:46 14,5 C 13,3 C 12,2 C 48 % 1029,1 hPa 0,0 l/m 0 min 0 min 33 W/m 0,0 km/h (0 Bft) 98,00 %
17.03.2020 17:48 14,4 C 13,3 C 12,2 C 49 % 1029,2 hPa 0,0 l/m 0 min 0 min 32 W/m 0,0 km/h (0 Bft) 95,65 %
17.03.2020 17:50 14,3 C 12,8 C 12,2 C 50 % 1029,2 hPa 0,0 l/m 0 min 0 min 30 W/m 0,0 km/h (0 Bft) 97,62 %
17.03.2020 17:52 14,3 C 12,8 C 12,2 C 49 % 1029,2 hPa 0,0 l/m 0 min 0 min 28 W/m 0,0 km/h (0 Bft) 94,00 %
17.03.2020 17:54 14,3 C 12,8 C 12,2 C 49 % 1029,2 hPa 0,0 l/m 0 min 0 min 28 W/m 0,0 km/h (0 Bft) 97,96 %
17.03.2020 17:56 14,3 C 12,8 C 11,7 C 49 % 1029,2 hPa 0,0 l/m 0 min 0 min 28 W/m 0,0 km/h (0 Bft) 97,87 %
17.03.2020 17:58 14,3 C 12,8 C 12,2 C 49 % 1029,2 hPa 0,0 l/m 0 min 0 min 26 W/m 0,0 km/h (0 Bft) 95,12 %
17.03.2020 18:00 14,2 C 12,8 C 11,7 C 49 % 1029,2 hPa 0,0 l/m 0 min 0 min 26 W/m 6,4 km/h (2 Bft) 96,00 %
17.03.2020 18:02 14,1 C 12,8 C 12,2 C 48 % 1029,1 hPa 0,0 l/m 0 min 0 min 26 W/m 16,1 km/h (3 Bft) 95,74 %
17.03.2020 18:04 14,1 C 12,8 C 12,2 C 48 % 1029,1 hPa 0,0 l/m 0 min 0 min 26 W/m 12,9 km/h (3 Bft) 97,96 %
17.03.2020 18:08 13,9 C 12,8 C 12,2 C 48 % 1029,0 hPa 0,0 l/m 0 min 0 min 24 W/m 6,4 km/h (2 Bft) 100,00 %
17.03.2020 18:10 13,8 C 12,8 C 12,2 C 48 % 1029,0 hPa 0,0 l/m 0 min 0 min 21 W/m 0,0 km/h (0 Bft) 97,87 %
17.03.2020 18:12 13,8 C 12,8 C 11,7 C 48 % 1029,0 hPa 0,0 l/m 0 min 0 min 20 W/m 0,0 km/h (0 Bft) 97,56 %
17.03.2020 18:14 13,8 C 12,2 C 11,7 C 48 % 1029,1 hPa 0,0 l/m 0 min 0 min 19 W/m 0,0 km/h (0 Bft) 98,00 %
17.03.2020 18:16 13,7 C 12,2 C 11,7 C 49 % 1029,1 hPa 0,0 l/m 0 min 0 min 18 W/m 0,0 km/h (0 Bft) 100,00 %
17.03.2020 18:18 13,7 C 12,2 C 11,7 C 49 % 1029,1 hPa 0,0 l/m 0 min 0 min 18 W/m 0,0 km/h (0 Bft) 93,62 %
17.03.2020 18:20 13,6 C 12,2 C 11,7 C 50 % 1029,1 hPa 0,0 l/m 0 min 0 min 16 W/m 0,0 km/h (0 Bft) 100,00 %
17.03.2020 18:22 13,6 C 11,7 C 11,1 C 50 % 1029,1 hPa 0,0 l/m 0 min 0 min 15 W/m 0,0 km/h (0 Bft) 100,00 %
17.03.2020 18:24 13,6 C 11,7 C 11,1 C 50 % 1029,1 hPa 0,0 l/m 0 min 0 min 14 W/m 6,4 km/h (2 Bft) 100,00 %
17.03.2020 18:26 13,5 C 11,7 C 11,1 C 49 % 1029,1 hPa 0,0 l/m 0 min 0 min 12 W/m 6,4 km/h (2 Bft) 95,74 %
17.03.2020 18:28 13,4 C 11,7 C 11,1 C 50 % 1029,1 hPa 0,0 l/m 0 min 0 min 11 W/m 0,0 km/h (0 Bft) 100,00 %
17.03.2020 18:30 13,4 C 11,7 C 11,1 C 50 % 1029,1 hPa 0,0 l/m 0 min 0 min 10 W/m 3,2 km/h (1 Bft) 97,56 %
17.03.2020 18:32 13,3 C 11,7 C 11,1 C 50 % 1029,1 hPa 0,0 l/m 0 min 0 min 9 W/m 0,0 km/h (0 Bft) 100,00 %
17.03.2020 18:34 13,3 C 11,7 C 11,1 C 50 % 1029,1 hPa 0,0 l/m 0 min 0 min 7 W/m 0,0 km/h (0 Bft) 100,00 %
17.03.2020 18:36 13,2 C 11,7 C 11,1 C 50 % 1029,1 hPa 0,0 l/m 0 min 0 min 6 W/m 0,0 km/h (0 Bft) 100,00 %
17.03.2020 18:38 13,2 C 11,7 C 11,1 C 50 % 1029,1 hPa 0,0 l/m 0 min 0 min 5 W/m 0,0 km/h (0 Bft) 100,00 %
17.03.2020 18:40 13,1 C 11,7 C 11,1 C 50 % 1029,1 hPa 0,0 l/m 0 min 0 min 1 W/m 0,0 km/h (0 Bft) 100,00 %
17.03.2020 18:42 13,1 C 11,7 C 11,1 C 51 % 1029,0 hPa 0,0 l/m 0 min 0 min 0 W/m 0,0 km/h (0 Bft) 100,00 %
17.03.2020 18:44 13,1 C 11,7 C 11,1 C 51 % 1029,0 hPa 0,0 l/m 0 min 0 min 0 W/m 0,0 km/h (0 Bft) 95,74 %
17.03.2020 18:46 13,0 C 11,7 C 10,6 C 51 % 1029,1 hPa 0,0 l/m 0 min 0 min 0 W/m 0,0 km/h (0 Bft) 100,00 %
17.03.2020 18:48 12,9 C 11,7 C 10,6 C 51 % 1029,1 hPa 0,0 l/m 0 min 0 min 0 W/m 0,0 km/h (0 Bft) 100,00 %
17.03.2020 18:50 12,9 C 11,1 C 10,6 C 52 % 1029,2 hPa 0,0 l/m 0 min 0 min 0 W/m 0,0 km/h (0 Bft) 100,00 %
17.03.2020 18:52 12,9 C 11,1 C 10,0 C 52 % 1029,2 hPa 0,0 l/m 0 min 0 min 0 W/m 0,0 km/h (0 Bft) 100,00 %
17.03.2020 18:54 12,8 C 11,1 C 9,4 C 53 % 1029,2 hPa 0,0 l/m 0 min 0 min 0 W/m 0,0 km/h (0 Bft) 100,00 %
17.03.2020 18:56 12,8 C 11,1 C 9,4 C 53 % 1029,3 hPa 0,0 l/m 0 min 0 min 0 W/m 0,0 km/h (0 Bft) 97,87 %
17.03.2020 18:58 12,8 C 11,1 C 9,4 C 53 % 1029,3 hPa 0,0 l/m 0 min 0 min 0 W/m 0,0 km/h (0 Bft) 97,56 %
17.03.2020 19:00 12,7 C 11,1 C 9,4 C 53 % 1029,2 hPa 0,0 l/m 0 min 0 min 0 W/m 0,0 km/h (0 Bft) 100,00 %
17.03.2020 19:02 12,7 C 11,1 C 8,9 C 53 % 1029,2 hPa 0,0 l/m 0 min 0 min 0 W/m 0,0 km/h (0 Bft) 100,00 %
17.03.2020 19:04 12,6 C 11,1 C 9,4 C 53 % 1029,3 hPa 0,0 l/m 0 min 0 min 0 W/m 0,0 km/h (0 Bft) 100,00 %
17.03.2020 19:06 12,6 C 11,1 C 8,9 C 53 % 1029,3 hPa 0,0 l/m 0 min 0 min 0 W/m 0,0 km/h (0 Bft) 98,00 %
17.03.2020 19:08 12,6 C 11,1 C 8,9 C 54 % 1029,3 hPa 0,0 l/m 0 min 0 min 0 W/m 0,0 km/h (0 Bft) 95,74 %
17.03.2020 19:10 12,5 C 10,6 C 8,9 C 54 % 1029,3 hPa 0,0 l/m 0 min 0 min 0 W/m 0,0 km/h (0 Bft) 100,00 %
17.03.2020 19:12 12,5 C 10,6 C 8,9 C 54 % 1029,4 hPa 0,0 l/m 0 min 0 min 0 W/m 0,0 km/h (0 Bft) 97,62 %
17.03.2020 19:14 12,4 C 11,1 C 8,9 C 55 % 1029,3 hPa 0,0 l/m 0 min 0 min 0 W/m 0,0 km/h (0 Bft) 97,87 %
17.03.2020 19:16 12,4 C 11,1 C 8,9 C 55 % 1029,4 hPa 0,0 l/m 0 min 0 min 0 W/m 0,0 km/h (0 Bft) 95,65 %
17.03.2020 19:18 12,4 C 11,1 C 8,9 C 55 % 1029,4 hPa 0,0 l/m 0 min 0 min 0 W/m 0,0 km/h (0 Bft) 98,00 %
17.03.2020 19:20 12,3 C 10,6 C 8,3 C 55 % 1029,5 hPa 0,0 l/m 0 min 0 min 0 W/m 0,0 km/h (0 Bft) 98,00 %
17.03.2020 19:22 12,3 C 10,6 C 8,3 C 55 % 1029,5 hPa 0,0 l/m 0 min 0 min 0 W/m 0,0 km/h (0 Bft) 95,65 %
17.03.2020 19:24 12,3 C 10,6 C 8,3 C 55 % 1029,5 hPa 0,0 l/m 0 min 0 min 0 W/m 0,0 km/h (0 Bft) 100,00 %
17.03.2020 19:26 12,2 C 10,6 C 8,3 C 56 % 1029,5 hPa 0,0 l/m 0 min 0 min 0 W/m 0,0 km/h (0 Bft) 95,92 %
17.03.2020 19:28 12,2 C 10,6 C 8,3 C 56 % 1029,6 hPa 0,0 l/m 0 min 0 min 0 W/m 0,0 km/h (0 Bft) 96,00 %
17.03.2020 19:30 12,2 C 10,6 C 8,3 C 57 % 1029,6 hPa 0,0 l/m 0 min 0 min 0 W/m 0,0 km/h (0 Bft) 97,87 %
17.03.2020 19:32 12,1 C 10,0 C 8,3 C 57 % 1029,6 hPa 0,0 l/m 0 min 0 min 0 W/m 0,0 km/h (0 Bft) 97,83 %
17.03.2020 19:34 12,1 C 10,0 C 8,3 C 57 % 1029,6 hPa 0,0 l/m 0 min 0 min 0 W/m 0,0 km/h (0 Bft) 97,87 %
17.03.2020 19:36 12,1 C 10,0 C 8,3 C 57 % 1029,6 hPa 0,0 l/m 0 min 0 min 0 W/m 0,0 km/h (0 Bft) 95,74 %
17.03.2020 19:38 12,0 C 10,0 C 8,3 C 57 % 1029,7 hPa 0,0 l/m 0 min 0 min 0 W/m 0,0 km/h (0 Bft) 97,87 %
17.03.2020 19:40 11,9 C 10,0 C 7,8 C 57 % 1029,6 hPa 0,0 l/m 0 min 0 min 0 W/m 0,0 km/h (0 Bft) 97,87 %
17.03.2020 19:42 11,9 C 10,0 C 7,8 C 58 % 1029,6 hPa 0,0 l/m 0 min 0 min 0 W/m 0,0 km/h (0 Bft) 97,87 %
17.03.2020 19:44 11,8 C 10,0 C 7,8 C 58 % 1029,7 hPa 0,0 l/m 0 min 0 min 0 W/m 0,0 km/h (0 Bft) 100,00 %
17.03.2020 19:46 11,8 C 10,6 C 8,3 C 58 % 1029,6 hPa 0,0 l/m 0 min 0 min 0 W/m 0,0 km/h (0 Bft) 100,00 %
17.03.2020 19:48 11,8 C 10,6 C 8,3 C 58 % 1029,7 hPa 0,0 l/m 0 min 0 min 0 W/m 0,0 km/h (0 Bft) 100,00 %
17.03.2020 19:50 11,7 C 10,6 C 8,9 C 58 % 1029,7 hPa 0,0 l/m 0 min 0 min 0 W/m 0,0 km/h (0 Bft) 100,00 %
17.03.2020 19:52 11,6 C 10,6 C 8,3 C 58 % 1029,7 hPa 0,0 l/m 0 min 0 min 0 W/m 0,0 km/h (0 Bft) 95,74 %
17.03.2020 19:54 11,6 C 10,0 C 8,3 C 58 % 1029,7 hPa 0,0 l/m 0 min 0 min 0 W/m 0,0 km/h (0 Bft) 97,87 %
17.03.2020 19:56 11,6 C 10,0 C 8,3 C 58 % 1029,7 hPa 0,0 l/m 0 min 0 min 0 W/m 0,0 km/h (0 Bft) 97,87 %
17.03.2020 19:58 11,5 C 10,0 C 8,3 C 59 % 1029,8 hPa 0,0 l/m 0 min 0 min 0 W/m 0,0 km/h (0 Bft) 97,87 %
17.03.2020 20:00 11,5 C 10,0 C 8,3 C 59 % 1029,8 hPa 0,0 l/m 0 min 0 min 0 W/m 0,0 km/h (0 Bft) 97,96 %
17.03.2020 20:02 11,4 C 9,4 C 7,8 C 59 % 1029,8 hPa 0,0 l/m 0 min 0 min 0 W/m 0,0 km/h (0 Bft) 97,87 %
17.03.2020 20:04 11,4 C 10,0 C 8,3 C 59 % 1029,7 hPa 0,0 l/m 0 min 0 min 0 W/m 0,0 km/h (0 Bft) 95,12 %
17.03.2020 20:06 11,3 C 10,0 C 8,3 C 59 % 1029,7 hPa 0,0 l/m 0 min 0 min 0 W/m 0,0 km/h (0 Bft) 95,74 %
17.03.2020 20:08 11,3 C 10,0 C 7,8 C 59 % 1029,8 hPa 0,0 l/m 0 min 0 min 0 W/m 0,0 km/h (0 Bft) 97,87 %
17.03.2020 20:10 11,3 C 10,0 C 7,8 C 59 % 1029,8 hPa 0,0 l/m 0 min 0 min 0 W/m 0,0 km/h (0 Bft) 50,00 %
17.03.2020 20:12 11,2 C 10,0 C 7,8 C 59 % 1029,8 hPa 0,0 l/m 0 min 0 min 0 W/m 0,0 km/h (0 Bft) 95,65 %
17.03.2020 20:14 11,2 C 10,0 C 7,8 C 59 % 1029,8 hPa 0,0 l/m 0 min 0 min 0 W/m 0,0 km/h (0 Bft) 97,83 %
17.03.2020 20:16 11,2 C 10,0 C 7,8 C 59 % 1029,8 hPa 0,0 l/m 0 min 0 min 0 W/m 0,0 km/h (0 Bft) 97,87 %
17.03.2020 20:18 11,2 C 10,0 C 7,8 C 59 % 1029,8 hPa 0,0 l/m 0 min 0 min 0 W/m 0,0 km/h (0 Bft) 97,87 %
17.03.2020 20:20 11,1 C 10,0 C 7,8 C 59 % 1029,7 hPa 0,0 l/m 0 min 0 min 0 W/m 0,0 km/h (0 Bft) 97,87 %
17.03.2020 20:22 11,1 C 10,0 C 7,8 C 59 % 1029,8 hPa 0,0 l/m 0 min 0 min 0 W/m 0,0 km/h (0 Bft) 97,87 %
17.03.2020 20:24 11,1 C 10,0 C 7,8 C 59 % 1029,7 hPa 0,0 l/m 0 min 0 min 0 W/m 0,0 km/h (0 Bft) 93,62 %
17.03.2020 20:26 11,1 C 10,0 C 7,8 C 59 % 1029,8 hPa 0,0 l/m 0 min 0 min 0 W/m 0,0 km/h (0 Bft) 97,83 %
17.03.2020 20:28 11,0 C 10,0 C 7,8 C 59 % 1029,8 hPa 0,0 l/m 0 min 0 min 0 W/m 0,0 km/h (0 Bft) 97,87 %
17.03.2020 20:30 11,0 C 10,0 C 7,8 C 59 % 1029,7 hPa 0,0 l/m 0 min 0 min 0 W/m 0,0 km/h (0 Bft) 97,87 %
17.03.2020 20:32 10,9 C 10,0 C 7,8 C 59 % 1029,7 hPa 0,0 l/m 0 min 0 min 0 W/m 0,0 km/h (0 Bft) 97,87 %
17.03.2020 20:34 10,9 C 10,0 C 7,8 C 59 % 1029,7 hPa 0,0 l/m 0 min 0 min 0 W/m 0,0 km/h (0 Bft) 97,87 %
17.03.2020 20:36 10,9 C 10,0 C 7,8 C 59 % 1029,8 hPa 0,0 l/m 0 min 0 min 0 W/m 0,0 km/h (0 Bft) 97,83 %
17.03.2020 20:38 10,9 C 10,0 C 7,8 C 59 % 1029,8 hPa 0,0 l/m 0 min 0 min 0 W/m 0,0 km/h (0 Bft) 97,87 %
17.03.2020 20:40 10,9 C 10,0 C 7,8 C 59 % 1029,8 hPa 0,0 l/m 0 min 0 min 0 W/m 0,0 km/h (0 Bft) 95,74 %
17.03.2020 20:42 10,9 C 10,0 C 7,8 C 59 % 1029,8 hPa 0,0 l/m 0 min 0 min 0 W/m 0,0 km/h (0 Bft) 97,87 %
17.03.2020 20:44 10,9 C 10,0 C 7,8 C 59 % 1029,7 hPa 0,0 l/m 0 min 0 min 0 W/m 0,0 km/h (0 Bft) 97,87 %
17.03.2020 20:46 10,8 C 10,0 C 7,8 C 58 % 1029,7 hPa 0,0 l/m 0 min 0 min 0 W/m 0,0 km/h (0 Bft) 100,00 %
17.03.2020 20:48 10,8 C 10,0 C 7,8 C 58 % 1029,7 hPa 0,0 l/m 0 min 0 min 0 W/m 0,0 km/h (0 Bft) 100,00 %
17.03.2020 20:50 10,8 C 10,0 C 7,8 C 58 % 1029,7 hPa 0,0 l/m 0 min 0 min 0 W/m 0,0 km/h (0 Bft) 100,00 %
17.03.2020 20:52 10,8 C 10,0 C 8,3 C 58 % 1029,7 hPa 0,0 l/m 0 min 0 min 0 W/m 0,0 km/h (0 Bft) 97,87 %
17.03.2020 20:54 10,8 C 10,0 C 8,3 C 58 % 1029,7 hPa 0,0 l/m 0 min 0 min 0 W/m 0,0 km/h (0 Bft) 100,00 %
17.03.2020 20:56 10,8 C 9,4 C 7,8 C 59 % 1029,7 hPa 0,0 l/m 0 min 0 min 0 W/m 0,0 km/h (0 Bft) 97,87 %
17.03.2020 20:58 10,8 C 9,4 C 7,8 C 59 % 1029,8 hPa 0,0 l/m 0 min 0 min 0 W/m 0,0 km/h (0 Bft) 97,87 %
17.03.2020 21:00 10,8 C 9,4 C 7,8 C 59 % 1029,7 hPa 0,0 l/m 0 min 0 min 0 W/m 0,0 km/h (0 Bft) 97,83 %
17.03.2020 21:02 10,7 C 9,4 C 7,2 C 59 % 1029,7 hPa 0,0 l/m 0 min 0 min 0 W/m 0,0 km/h (0 Bft) 100,00 %
17.03.2020 21:04 10,7 C 9,4 C 7,2 C 59 % 1029,7 hPa 0,0 l/m 0 min 0 min 0 W/m 0,0 km/h (0 Bft) 97,87 %
17.03.2020 21:06 10,7 C 9,4 C 7,2 C 59 % 1029,7 hPa 0,0 l/m 0 min 0 min 0 W/m 0,0 km/h (0 Bft) 95,74 %
17.03.2020 21:08 10,7 C 9,4 C 7,2 C 59 % 1029,7 hPa 0,0 l/m 0 min 0 min 0 W/m 0,0 km/h (0 Bft) 95,74 %
17.03.2020 21:10 10,7 C 9,4 C 7,2 C 59 % 1029,7 hPa 0,0 l/m 0 min 0 min 0 W/m 0,0 km/h (0 Bft) 93,62 %
17.03.2020 21:12 10,6 C 9,4 C 6,7 C 59 % 1029,7 hPa 0,0 l/m 0 min 0 min 0 W/m 0,0 km/h (0 Bft) 97,83 %
17.03.2020 21:14 10,6 C 9,4 C 6,7 C 59 % 1029,7 hPa 0,0 l/m 0 min 0 min 0 W/m 0,0 km/h (0 Bft) 95,74 %
17.03.2020 21:16 10,6 C 9,4 C 6,7 C 59 % 1029,7 hPa 0,0 l/m 0 min 0 min 0 W/m 0,0 km/h (0 Bft) 95,74 %
17.03.2020 21:18 10,6 C 9,4 C 6,7 C 59 % 1029,7 hPa 0,0 l/m 0 min 0 min 0 W/m 0,0 km/h (0 Bft) 95,74 %
17.03.2020 21:20 10,5 C 9,4 C 6,7 C 59 % 1029,7 hPa 0,0 l/m 0 min 0 min 0 W/m 0,0 km/h (0 Bft) 95,74 %
17.03.2020 21:22 10,5 C 9,4 C 6,7 C 59 % 1029,7 hPa 0,0 l/m 0 min 0 min 0 W/m 0,0 km/h (0 Bft) 93,62 %
17.03.2020 21:24 10,4 C 9,4 C 6,7 C 58 % 1029,7 hPa 0,0 l/m 0 min 0 min 0 W/m 0,0 km/h (0 Bft) 95,65 %
17.03.2020 21:26 10,4 C 9,4 C 6,7 C 59 % 1029,7 hPa 0,0 l/m 0 min 0 min 0 W/m 0,0 km/h (0 Bft) 93,62 %
17.03.2020 21:28 10,4 C 9,4 C 6,7 C 59 % 1029,7 hPa 0,0 l/m 0 min 0 min 0 W/m 0,0 km/h (0 Bft) 95,74 %
17.03.2020 21:30 10,4 C 9,4 C 6,7 C 59 % 1029,7 hPa 0,0 l/m 0 min 0 min 0 W/m 0,0 km/h (0 Bft) 95,74 %
17.03.2020 21:32 10,3 C 9,4 C 6,7 C 59 % 1029,8 hPa 0,0 l/m 0 min 0 min 0 W/m 0,0 km/h (0 Bft) 95,74 %
17.03.2020 21:34 10,3 C 8,9 C 6,7 C 59 % 1029,8 hPa 0,0 l/m 0 min 0 min 0 W/m 0,0 km/h (0 Bft) 95,74 %
17.03.2020 21:36 10,3 C 8,9 C 6,7 C 59 % 1029,8 hPa 0,0 l/m 0 min 0 min 0 W/m 0,0 km/h (0 Bft) 95,65 %
17.03.2020 21:38 10,2 C 8,9 C 6,7 C 59 % 1029,8 hPa 0,0 l/m 0 min 0 min 0 W/m 0,0 km/h (0 Bft) 93,62 %
17.03.2020 21:40 10,2 C 9,4 C 6,7 C 59 % 1029,8 hPa 0,0 l/m 0 min 0 min 0 W/m 0,0 km/h (0 Bft) 95,74 %
17.03.2020 21:42 10,2 C 8,9 C 6,7 C 59 % 1029,8 hPa 0,0 l/m 0 min 0 min 0 W/m 0,0 km/h (0 Bft) 95,74 %
17.03.2020 21:44 10,2 C 8,9 C 6,7 C 59 % 1029,7 hPa 0,0 l/m 0 min 0 min 0 W/m 0,0 km/h (0 Bft) 95,74 %
17.03.2020 21:46 10,1 C 9,4 C 6,7 C 59 % 1029,7 hPa 0,0 l/m 0 min 0 min 0 W/m 0,0 km/h (0 Bft) 95,74 %
17.03.2020 21:48 10,1 C 9,4 C 7,2 C 59 % 1029,6 hPa 0,0 l/m 0 min 0 min 0 W/m 0,0 km/h (0 Bft) 95,65 %
17.03.2020 21:50 10,1 C 9,4 C 7,2 C 59 % 1029,7 hPa 0,0 l/m 0 min 0 min 0 W/m 0,0 km/h (0 Bft) 95,74 %
17.03.2020 21:52 10,1 C 9,4 C 7,2 C 59 % 1029,7 hPa 0,0 l/m 0 min 0 min 0 W/m 0,0 km/h (0 Bft) 97,87 %
17.03.2020 21:54 10,1 C 9,4 C 7,2 C 59 % 1029,6 hPa 0,0 l/m 0 min 0 min 0 W/m 0,0 km/h (0 Bft) 97,87 %
17.03.2020 21:56 10,1 C 9,4 C 7,8 C 59 % 1029,6 hPa 0,0 l/m 0 min 0 min 0 W/m 0,0 km/h (0 Bft) 97,87 %
17.03.2020 21:58 10,0 C 9,4 C 7,8 C 59 % 1029,7 hPa 0,0 l/m 0 min 0 min 0 W/m 0,0 km/h (0 Bft) 95,74 %
17.03.2020 22:00 10,0 C 9,4 C 7,8 C 59 % 1029,7 hPa 0,0 l/m 0 min 0 min 0 W/m 0,0 km/h (0 Bft) 97,83 %
17.03.2020 22:02 10,0 C 9,4 C 7,2 C 60 % 1029,8 hPa 0,0 l/m 0 min 0 min 0 W/m 0,0 km/h (0 Bft) 97,87 %
17.03.2020 22:04 10,0 C 9,4 C 7,2 C 60 % 1029,7 hPa 0,0 l/m 0 min 0 min 0 W/m 0,0 km/h (0 Bft) 97,87 %
17.03.2020 22:06 10,0 C 9,4 C 7,8 C 60 % 1029,8 hPa 0,0 l/m 0 min 0 min 0 W/m 0,0 km/h (0 Bft) 97,87 %
17.03.2020 22:08 10,0 C 8,9 C 7,2 C 60 % 1029,8 hPa 0,0 l/m 0 min 0 min 0 W/m 0,0 km/h (0 Bft) 97,87 %
17.03.2020 22:10 9,9 C 8,9 C 7,2 C 60 % 1029,8 hPa 0,0 l/m 0 min 0 min 0 W/m 0,0 km/h (0 Bft) 97,83 %
17.03.2020 22:12 9,9 C 8,9 C 7,2 C 60 % 1029,8 hPa 0,0 l/m 0 min 0 min 0 W/m 0,0 km/h (0 Bft) 97,87 %
17.03.2020 22:14 9,9 C 8,9 C 6,7 C 61 % 1029,9 hPa 0,0 l/m 0 min 0 min 0 W/m 0,0 km/h (0 Bft) 97,87 %
17.03.2020 22:16 9,9 C 8,9 C 6,7 C 61 % 1029,9 hPa 0,0 l/m 0 min 0 min 0 W/m 0,0 km/h (0 Bft) 100,00 %
17.03.2020 22:18 9,9 C 8,9 C 6,1 C 61 % 1029,9 hPa 0,0 l/m 0 min 0 min 0 W/m 0,0 km/h (0 Bft) 100,00 %
17.03.2020 22:20 9,9 C 8,9 C 6,1 C 61 % 1029,9 hPa 0,0 l/m 0 min 0 min 0 W/m 0,0 km/h (0 Bft) 100,00 %
17.03.2020 22:22 9,9 C 8,9 C 5,6 C 61 % 1029,9 hPa 0,0 l/m 0 min 0 min 0 W/m 0,0 km/h (0 Bft) 100,00 %
17.03.2020 22:24 9,9 C 8,9 C 5,6 C 61 % 1029,9 hPa 0,0 l/m 0 min 0 min 0 W/m 0,0 km/h (0 Bft) 97,87 %
17.03.2020 22:26 9,8 C 8,9 C 5,6 C 61 % 1029,9 hPa 0,0 l/m 0 min 0 min 0 W/m 0,0 km/h (0 Bft) 100,00 %
17.03.2020 22:28 9,8 C 8,9 C 5,6 C 61 % 1029,9 hPa 0,0 l/m 0 min 0 min 0 W/m 0,0 km/h (0 Bft) 97,87 %
17.03.2020 22:30 9,8 C 8,3 C 5,6 C 61 % 1029,9 hPa 0,0 l/m 0 min 0 min 0 W/m 0,0 km/h (0 Bft) 100,00 %
17.03.2020 22:32 9,8 C 8,3 C 5,6 C 62 % 1029,9 hPa 0,0 l/m 0 min 0 min 0 W/m 0,0 km/h (0 Bft) 100,00 %
17.03.2020 22:34 9,7 C 8,3 C 5,6 C 62 % 1029,9 hPa 0,0 l/m 0 min 0 min 0 W/m 0,0 km/h (0 Bft) 100,00 %
17.03.2020 22:36 9,7 C 8,3 C 5,6 C 62 % 1029,9 hPa 0,0 l/m 0 min 0 min 0 W/m 0,0 km/h (0 Bft) 100,00 %
17.03.2020 22:38 9,7 C 8,3 C 5,6 C 62 % 1029,9 hPa 0,0 l/m 0 min 0 min 0 W/m 0,0 km/h (0 Bft) 100,00 %
17.03.2020 22:40 9,7 C 8,3 C 5,6 C 62 % 1029,9 hPa 0,0 l/m 0 min 0 min 0 W/m 0,0 km/h (0 Bft) 97,87 %
17.03.2020 22:42 9,6 C 8,3 C 6,1 C 62 % 1029,9 hPa 0,0 l/m 0 min 0 min 0 W/m 0,0 km/h (0 Bft) 97,87 %
17.03.2020 22:44 9,6 C 8,3 C 6,1 C 62 % 1029,9 hPa 0,0 l/m 0 min 0 min 0 W/m 0,0 km/h (0 Bft) 100,00 %
17.03.2020 22:46 9,6 C 8,3 C 5,6 C 62 % 1029,9 hPa 0,0 l/m 0 min 0 min 0 W/m 0,0 km/h (0 Bft) 100,00 %
17.03.2020 22:48 9,6 C 8,3 C 5,6 C 62 % 1029,9 hPa 0,0 l/m 0 min 0 min 0 W/m 0,0 km/h (0 Bft) 100,00 %
17.03.2020 22:50 9,5 C 8,3 C 5,6 C 62 % 1029,9 hPa 0,0 l/m 0 min 0 min 0 W/m 0,0 km/h (0 Bft) 100,00 %
17.03.2020 22:52 9,5 C 8,3 C 5,6 C 63 % 1030,0 hPa 0,0 l/m 0 min 0 min 0 W/m 0,0 km/h (0 Bft) 100,00 %
17.03.2020 22:54 9,4 C 8,3 C 5,6 C 63 % 1029,9 hPa 0,0 l/m 0 min 0 min 0 W/m 0,0 km/h (0 Bft) 100,00 %
17.03.2020 22:56 9,4 C 8,3 C 5,6 C 63 % 1029,9 hPa 0,0 l/m 0 min 0 min 0 W/m 0,0 km/h (0 Bft) 97,83 %
17.03.2020 22:58 9,4 C 8,3 C 5,6 C 63 % 1029,9 hPa 0,0 l/m 0 min 0 min 0 W/m 0,0 km/h (0 Bft) 97,87 %
17.03.2020 23:00 9,4 C 8,3 C 5,6 C 63 % 1030,0 hPa 0,0 l/m 0 min 0 min 0 W/m 0,0 km/h (0 Bft) 95,74 %
17.03.2020 23:02 9,3 C 8,3 C 5,6 C 64 % 1029,9 hPa 0,0 l/m 0 min 0 min 0 W/m 0,0 km/h (0 Bft) 95,74 %
17.03.2020 23:04 9,3 C 7,8 C 6,1 C 64 % 1029,9 hPa 0,0 l/m 0 min 0 min 0 W/m 0,0 km/h (0 Bft) 93,62 %
17.03.2020 23:06 9,3 C 7,8 C 6,1 C 64 % 1029,8 hPa 0,0 l/m 0 min 0 min 0 W/m 0,0 km/h (0 Bft) 97,87 %
17.03.2020 23:08 9,3 C 7,8 C 6,7 C 64 % 1029,8 hPa 0,0 l/m 0 min 0 min 0 W/m 0,0 km/h (0 Bft) 97,83 %
17.03.2020 23:10 9,2 C 7,8 C 6,7 C 65 % 1029,8 hPa 0,0 l/m 0 min 0 min 0 W/m 0,0 km/h (0 Bft) 95,74 %
17.03.2020 23:12 9,2 C 7,8 C 6,7 C 65 % 1029,9 hPa 0,0 l/m 0 min 0 min 0 W/m 0,0 km/h (0 Bft) 95,74 %
17.03.2020 23:14 9,2 C 7,8 C 6,7 C 65 % 1029,8 hPa 0,0 l/m 0 min 0 min 0 W/m 0,0 km/h (0 Bft) 95,74 %
17.03.2020 23:16 9,1 C 7,8 C 6,7 C 65 % 1029,8 hPa 0,0 l/m 0 min 0 min 0 W/m 0,0 km/h (0 Bft) 91,49 %
17.03.2020 23:18 9,1 C 7,8 C 6,7 C 65 % 1029,8 hPa 0,0 l/m 0 min 0 min 0 W/m 0,0 km/h (0 Bft) 97,87 %
17.03.2020 23:20 9,1 C 7,8 C 6,7 C 65 % 1029,7 hPa 0,0 l/m 0 min 0 min 0 W/m 0,0 km/h (0 Bft) 95,65 %
17.03.2020 23:22 9,0 C 7,8 C 6,7 C 66 % 1029,7 hPa 0,0 l/m 0 min 0 min 0 W/m 0,0 km/h (0 Bft) 93,62 %
17.03.2020 23:24 9,0 C 7,8 C 6,7 C 66 % 1029,7 hPa 0,0 l/m 0 min 0 min 0 W/m 0,0 km/h (0 Bft) 53,33 %
17.03.2020 23:26 8,9 C 7,8 C 6,7 C 66 % 1029,7 hPa 0,0 l/m 0 min 0 min 0 W/m 0,0 km/h (0 Bft) 93,62 %
17.03.2020 23:28 8,9 C 7,8 C 6,7 C 66 % 1029,6 hPa 0,0 l/m 0 min 0 min 0 W/m 0,0 km/h (0 Bft) 95,74 %
17.03.2020 23:30 8,8 C 7,8 C 6,7 C 66 % 1029,6 hPa 0,0 l/m 0 min 0 min 0 W/m 0,0 km/h (0 Bft) 95,74 %
17.03.2020 23:32 8,8 C 7,8 C 6,7 C 66 % 1029,6 hPa 0,0 l/m 0 min 0 min 0 W/m 0,0 km/h (0 Bft) 95,65 %
17.03.2020 23:34 8,8 C 7,8 C 6,7 C 67 % 1029,6 hPa 0,0 l/m 0 min 0 min 0 W/m 0,0 km/h (0 Bft) 93,62 %
17.03.2020 23:36 8,8 C 7,8 C 6,7 C 67 % 1029,6 hPa 0,0 l/m 0 min 0 min 0 W/m 0,0 km/h (0 Bft) 93,62 %
17.03.2020 23:38 8,7 C 7,8 C 6,7 C 67 % 1029,6 hPa 0,0 l/m 0 min 0 min 0 W/m 0,0 km/h (0 Bft) 95,74 %
17.03.2020 23:40 8,7 C 7,8 C 6,7 C 67 % 1029,6 hPa 0,0 l/m 0 min 0 min 0 W/m 0,0 km/h (0 Bft) 95,74 %
17.03.2020 23:42 8,7 C 7,8 C 6,7 C 67 % 1029,6 hPa 0,0 l/m 0 min 0 min 0 W/m 0,0 km/h (0 Bft) 95,74 %
17.03.2020 23:44 8,7 C 7,8 C 6,7 C 67 % 1029,6 hPa 0,0 l/m 0 min 0 min 0 W/m 0,0 km/h (0 Bft) 93,48 %
17.03.2020 23:46 8,7 C 7,8 C 6,7 C 68 % 1029,5 hPa 0,0 l/m 0 min 0 min 0 W/m 6,4 km/h (2 Bft) 97,87 %
17.03.2020 23:48 8,6 C 7,8 C 6,7 C 68 % 1029,5 hPa 0,0 l/m 0 min 0 min 0 W/m 0,0 km/h (0 Bft) 97,87 %
17.03.2020 23:50 8,6 C 7,2 C 6,7 C 68 % 1029,5 hPa 0,0 l/m 0 min 0 min 0 W/m 0,0 km/h (0 Bft) 100,00 %
17.03.2020 23:52 8,6 C 7,2 C 6,7 C 68 % 1029,6 hPa 0,0 l/m 0 min 0 min 0 W/m 6,4 km/h (2 Bft) 97,87 %
17.03.2020 23:54 8,6 C 7,2 C 6,7 C 68 % 1029,6 hPa 0,0 l/m 0 min 0 min 0 W/m 0,0 km/h (0 Bft) 97,83 %
17.03.2020 23:56 8,5 C 7,2 C 6,1 C 68 % 1029,6 hPa 0,0 l/m 0 min 0 min 0 W/m 0,0 km/h (0 Bft) 100,00 %
17.03.2020 23:58 8,5 C 7,2 C 6,1 C 68 % 1029,5 hPa 0,0 l/m 0 min 0 min 0 W/m 6,4 km/h (2 Bft) 97,87 %
_ Min-Zeit 07:22 06:56 06:52 16:56 00:00 - - - - 00:00 20:10
Minimum _ 4,9 C 3,3 C 2,2 C 44 % 1025,9 hPa - - - - 0,0 km/h (0 Bft) 50,00 %
_ Max-Zeit 15:40 13:48 13:10 08:12 11:22 00:00 12:08 00:00 12:36 11:28 00:00
Maximum _ 16,8 C 22,2 C 21,1 C 94 % 1031,1 hPa 0,0 l/m 4 min 0 min 705 W/m 25,7 km/h
SO (4 Bft)
100,00 %
Durchschnitt _ 10,9 C 11,6 C 9,4 C 70 % 1029,2 hPa #0,0 l/m #8:06 h #0 min. 376 W/m 2,0 km/h (1 Bft) 97,09 %
© 2020 W. Hausmann